<?xml version="1.0" encoding="UTF-8" standalone="no" ?>
<gpx xmlns="http://www.topografix.com/GPX/1/1" xmlns:xsi="http://www.w3.org/2001/XMLSchema-instance" xsi:schemaLocation="http://www.topografix.com/GPX/1/1 http://www.topografix.com/GPX/1/1/gpx.xsd" version="1.1" creator="VisuGPX - https://www.visugpx.com">
  <metadata>
    <name>Tuc d'Auribareille - 2237 m</name>
    <desc><![CDATA[Sorite en ski de randonnée ]]></desc>
  </metadata>
  <trk>
    <name><![CDATA[Tuc d'Auribareille - 2237m]]></name>
    <trkseg>
      <trkpt lat="42.88228" lon="-0.14249">
        <ele>1342.1</ele>
        <time>2016-03-18T07:51:35Z</time>
      </trkpt>
      <trkpt lat="42.88223" lon="-0.14253">
        <ele>1342.56</ele>
        <time>2016-03-18T07:52:01Z</time>
      </trkpt>
      <trkpt lat="42.88225" lon="-0.14256">
        <ele>1342.62</ele>
        <time>2016-03-18T07:52:11Z</time>
      </trkpt>
      <trkpt lat="42.88227" lon="-0.14254">
        <ele>1342.61</ele>
        <time>2016-03-18T07:52:38Z</time>
      </trkpt>
      <trkpt lat="42.88226" lon="-0.14255">
        <ele>1341.16</ele>
        <time>2016-03-18T07:53:02Z</time>
      </trkpt>
      <trkpt lat="42.88228" lon="-0.14254">
        <ele>1341.33</ele>
        <time>2016-03-18T07:53:35Z</time>
      </trkpt>
      <trkpt lat="42.8823" lon="-0.14255">
        <ele>1342.56</ele>
        <time>2016-03-18T07:54:00Z</time>
      </trkpt>
      <trkpt lat="42.88227" lon="-0.14257">
        <ele>1342.31</ele>
        <time>2016-03-18T07:54:17Z</time>
      </trkpt>
      <trkpt lat="42.88224" lon="-0.14255">
        <ele>1342.25</ele>
        <time>2016-03-18T07:54:19Z</time>
      </trkpt>
      <trkpt lat="42.88221" lon="-0.14252">
        <ele>1342.08</ele>
        <time>2016-03-18T07:54:23Z</time>
      </trkpt>
      <trkpt lat="42.88208" lon="-0.14239">
        <ele>1340.74</ele>
        <time>2016-03-18T07:54:40Z</time>
      </trkpt>
      <trkpt lat="42.88208" lon="-0.14237">
        <ele>1340.95</ele>
        <time>2016-03-18T07:55:05Z</time>
      </trkpt>
      <trkpt lat="42.88207" lon="-0.14236">
        <ele>1340.96</ele>
        <time>2016-03-18T07:55:24Z</time>
      </trkpt>
      <trkpt lat="42.88206" lon="-0.14237">
        <ele>1341.57</ele>
        <time>2016-03-18T07:55:43Z</time>
      </trkpt>
      <trkpt lat="42.88207" lon="-0.14238">
        <ele>1341.43</ele>
        <time>2016-03-18T07:56:08Z</time>
      </trkpt>
      <trkpt lat="42.88207" lon="-0.14238">
        <ele>1341.5</ele>
        <time>2016-03-18T07:56:31Z</time>
      </trkpt>
      <trkpt lat="42.88208" lon="-0.14238">
        <ele>1341.41</ele>
        <time>2016-03-18T07:57:07Z</time>
      </trkpt>
      <trkpt lat="42.88207" lon="-0.14237">
        <ele>1341.38</ele>
        <time>2016-03-18T07:57:27Z</time>
      </trkpt>
      <trkpt lat="42.88207" lon="-0.14236">
        <ele>1341.57</ele>
        <time>2016-03-18T07:57:53Z</time>
      </trkpt>
      <trkpt lat="42.88206" lon="-0.1422">
        <ele>1342.98</ele>
        <time>2016-03-18T07:58:11Z</time>
      </trkpt>
      <trkpt lat="42.88201" lon="-0.14208">
        <ele>1346.11</ele>
        <time>2016-03-18T07:58:29Z</time>
      </trkpt>
      <trkpt lat="42.88193" lon="-0.14197">
        <ele>1349.16</ele>
        <time>2016-03-18T07:58:48Z</time>
      </trkpt>
      <trkpt lat="42.88183" lon="-0.14184">
        <ele>1352.25</ele>
        <time>2016-03-18T07:59:07Z</time>
      </trkpt>
      <trkpt lat="42.88176" lon="-0.14169">
        <ele>1355.08</ele>
        <time>2016-03-18T07:59:26Z</time>
      </trkpt>
      <trkpt lat="42.88175" lon="-0.14154">
        <ele>1356.5</ele>
        <time>2016-03-18T07:59:39Z</time>
      </trkpt>
      <trkpt lat="42.88168" lon="-0.14138">
        <ele>1359.4</ele>
        <time>2016-03-18T07:59:56Z</time>
      </trkpt>
      <trkpt lat="42.88163" lon="-0.14123">
        <ele>1361.08</ele>
        <time>2016-03-18T08:00:12Z</time>
      </trkpt>
      <trkpt lat="42.88159" lon="-0.14107">
        <ele>1364.18</ele>
        <time>2016-03-18T08:00:31Z</time>
      </trkpt>
      <trkpt lat="42.88156" lon="-0.14095">
        <ele>1367.21</ele>
        <time>2016-03-18T08:00:47Z</time>
      </trkpt>
      <trkpt lat="42.8815" lon="-0.14086">
        <ele>1370.26</ele>
        <time>2016-03-18T08:01:03Z</time>
      </trkpt>
      <trkpt lat="42.88139" lon="-0.14088">
        <ele>1373.41</ele>
        <time>2016-03-18T08:01:17Z</time>
      </trkpt>
      <trkpt lat="42.88126" lon="-0.14083">
        <ele>1376.47</ele>
        <time>2016-03-18T08:01:32Z</time>
      </trkpt>
      <trkpt lat="42.88118" lon="-0.1409">
        <ele>1379.58</ele>
        <time>2016-03-18T08:01:50Z</time>
      </trkpt>
      <trkpt lat="42.88111" lon="-0.14101">
        <ele>1381.39</ele>
        <time>2016-03-18T08:02:07Z</time>
      </trkpt>
      <trkpt lat="42.88105" lon="-0.14112">
        <ele>1384.6</ele>
        <time>2016-03-18T08:02:21Z</time>
      </trkpt>
      <trkpt lat="42.88098" lon="-0.14125">
        <ele>1387.67</ele>
        <time>2016-03-18T08:02:39Z</time>
      </trkpt>
      <trkpt lat="42.88087" lon="-0.14129">
        <ele>1390.72</ele>
        <time>2016-03-18T08:02:55Z</time>
      </trkpt>
      <trkpt lat="42.88089" lon="-0.14125">
        <ele>1393.32</ele>
        <time>2016-03-18T08:03:08Z</time>
      </trkpt>
      <trkpt lat="42.88092" lon="-0.14108">
        <ele>1396.41</ele>
        <time>2016-03-18T08:03:29Z</time>
      </trkpt>
      <trkpt lat="42.88094" lon="-0.14101">
        <ele>1398.33</ele>
        <time>2016-03-18T08:03:47Z</time>
      </trkpt>
      <trkpt lat="42.88094" lon="-0.14089">
        <ele>1399.71</ele>
        <time>2016-03-18T08:03:59Z</time>
      </trkpt>
      <trkpt lat="42.88089" lon="-0.14094">
        <ele>1401.57</ele>
        <time>2016-03-18T08:04:14Z</time>
      </trkpt>
      <trkpt lat="42.88084" lon="-0.14106">
        <ele>1404.73</ele>
        <time>2016-03-18T08:04:29Z</time>
      </trkpt>
      <trkpt lat="42.88082" lon="-0.14107">
        <ele>1405.08</ele>
        <time>2016-03-18T08:04:31Z</time>
      </trkpt>
      <trkpt lat="42.88082" lon="-0.14103">
        <ele>1406.75</ele>
        <time>2016-03-18T08:04:43Z</time>
      </trkpt>
      <trkpt lat="42.88079" lon="-0.14082">
        <ele>1409.05</ele>
        <time>2016-03-18T08:05:03Z</time>
      </trkpt>
      <trkpt lat="42.88074" lon="-0.1409">
        <ele>1411.45</ele>
        <time>2016-03-18T08:05:15Z</time>
      </trkpt>
      <trkpt lat="42.88072" lon="-0.1408">
        <ele>1413.72</ele>
        <time>2016-03-18T08:05:30Z</time>
      </trkpt>
      <trkpt lat="42.88065" lon="-0.14065">
        <ele>1416.9</ele>
        <time>2016-03-18T08:05:50Z</time>
      </trkpt>
      <trkpt lat="42.88059" lon="-0.14052">
        <ele>1420.15</ele>
        <time>2016-03-18T08:06:07Z</time>
      </trkpt>
      <trkpt lat="42.88063" lon="-0.14037">
        <ele>1423.29</ele>
        <time>2016-03-18T08:06:25Z</time>
      </trkpt>
      <trkpt lat="42.88064" lon="-0.14026">
        <ele>1426.46</ele>
        <time>2016-03-18T08:06:38Z</time>
      </trkpt>
      <trkpt lat="42.88067" lon="-0.14012">
        <ele>1429.56</ele>
        <time>2016-03-18T08:06:56Z</time>
      </trkpt>
      <trkpt lat="42.88069" lon="-0.14001">
        <ele>1432.68</ele>
        <time>2016-03-18T08:07:11Z</time>
      </trkpt>
      <trkpt lat="42.88069" lon="-0.13985">
        <ele>1435.73</ele>
        <time>2016-03-18T08:07:31Z</time>
      </trkpt>
      <trkpt lat="42.88065" lon="-0.13983">
        <ele>1438.75</ele>
        <time>2016-03-18T08:07:48Z</time>
      </trkpt>
      <trkpt lat="42.88059" lon="-0.1399">
        <ele>1441.98</ele>
        <time>2016-03-18T08:08:05Z</time>
      </trkpt>
      <trkpt lat="42.88052" lon="-0.13991">
        <ele>1445</ele>
        <time>2016-03-18T08:08:18Z</time>
      </trkpt>
      <trkpt lat="42.88039" lon="-0.13999">
        <ele>1448.04</ele>
        <time>2016-03-18T08:08:39Z</time>
      </trkpt>
      <trkpt lat="42.8803" lon="-0.14002">
        <ele>1451.09</ele>
        <time>2016-03-18T08:08:54Z</time>
      </trkpt>
      <trkpt lat="42.88022" lon="-0.14003">
        <ele>1454.5</ele>
        <time>2016-03-18T08:09:09Z</time>
      </trkpt>
      <trkpt lat="42.88019" lon="-0.14003">
        <ele>1457.53</ele>
        <time>2016-03-18T08:09:28Z</time>
      </trkpt>
      <trkpt lat="42.88024" lon="-0.13991">
        <ele>1460.56</ele>
        <time>2016-03-18T08:09:46Z</time>
      </trkpt>
      <trkpt lat="42.88028" lon="-0.13978">
        <ele>1463.69</ele>
        <time>2016-03-18T08:10:02Z</time>
      </trkpt>
      <trkpt lat="42.88031" lon="-0.13964">
        <ele>1466.73</ele>
        <time>2016-03-18T08:10:19Z</time>
      </trkpt>
      <trkpt lat="42.88032" lon="-0.13951">
        <ele>1469.18</ele>
        <time>2016-03-18T08:10:35Z</time>
      </trkpt>
      <trkpt lat="42.8803" lon="-0.13944">
        <ele>1472.16</ele>
        <time>2016-03-18T08:10:50Z</time>
      </trkpt>
      <trkpt lat="42.88018" lon="-0.13955">
        <ele>1475.29</ele>
        <time>2016-03-18T08:11:11Z</time>
      </trkpt>
      <trkpt lat="42.8801" lon="-0.1396">
        <ele>1478.54</ele>
        <time>2016-03-18T08:11:27Z</time>
      </trkpt>
      <trkpt lat="42.88003" lon="-0.13968">
        <ele>1481.58</ele>
        <time>2016-03-18T08:11:44Z</time>
      </trkpt>
      <trkpt lat="42.87999" lon="-0.13967">
        <ele>1482.54</ele>
        <time>2016-03-18T08:11:49Z</time>
      </trkpt>
      <trkpt lat="42.87994" lon="-0.13969">
        <ele>1484.52</ele>
        <time>2016-03-18T08:12:06Z</time>
      </trkpt>
      <trkpt lat="42.87995" lon="-0.13956">
        <ele>1486.92</ele>
        <time>2016-03-18T08:12:23Z</time>
      </trkpt>
      <trkpt lat="42.88001" lon="-0.1394">
        <ele>1490.03</ele>
        <time>2016-03-18T08:12:45Z</time>
      </trkpt>
      <trkpt lat="42.88004" lon="-0.13927">
        <ele>1493.1</ele>
        <time>2016-03-18T08:13:03Z</time>
      </trkpt>
      <trkpt lat="42.88006" lon="-0.13921">
        <ele>1496.07</ele>
        <time>2016-03-18T08:13:20Z</time>
      </trkpt>
      <trkpt lat="42.88" lon="-0.13929">
        <ele>1498.07</ele>
        <time>2016-03-18T08:13:41Z</time>
      </trkpt>
      <trkpt lat="42.88001" lon="-0.1392">
        <ele>1500.4</ele>
        <time>2016-03-18T08:13:58Z</time>
      </trkpt>
      <trkpt lat="42.88" lon="-0.13911">
        <ele>1502.63</ele>
        <time>2016-03-18T08:14:16Z</time>
      </trkpt>
      <trkpt lat="42.88002" lon="-0.13908">
        <ele>1502.75</ele>
        <time>2016-03-18T08:14:35Z</time>
      </trkpt>
      <trkpt lat="42.87999" lon="-0.13913">
        <ele>1503.99</ele>
        <time>2016-03-18T08:14:50Z</time>
      </trkpt>
      <trkpt lat="42.8799" lon="-0.13923">
        <ele>1507.14</ele>
        <time>2016-03-18T08:15:09Z</time>
      </trkpt>
      <trkpt lat="42.87979" lon="-0.1393">
        <ele>1510.29</ele>
        <time>2016-03-18T08:15:27Z</time>
      </trkpt>
      <trkpt lat="42.87979" lon="-0.1392">
        <ele>1511.97</ele>
        <time>2016-03-18T08:15:43Z</time>
      </trkpt>
      <trkpt lat="42.87981" lon="-0.13899">
        <ele>1515.17</ele>
        <time>2016-03-18T08:16:06Z</time>
      </trkpt>
      <trkpt lat="42.87983" lon="-0.13888">
        <ele>1518.27</ele>
        <time>2016-03-18T08:16:21Z</time>
      </trkpt>
      <trkpt lat="42.87984" lon="-0.13873">
        <ele>1521.42</ele>
        <time>2016-03-18T08:16:38Z</time>
      </trkpt>
      <trkpt lat="42.87982" lon="-0.13866">
        <ele>1524.5</ele>
        <time>2016-03-18T08:16:56Z</time>
      </trkpt>
      <trkpt lat="42.87978" lon="-0.13878">
        <ele>1527.67</ele>
        <time>2016-03-18T08:17:13Z</time>
      </trkpt>
      <trkpt lat="42.87971" lon="-0.13887">
        <ele>1530.68</ele>
        <time>2016-03-18T08:17:30Z</time>
      </trkpt>
      <trkpt lat="42.87964" lon="-0.13889">
        <ele>1533.92</ele>
        <time>2016-03-18T08:17:43Z</time>
      </trkpt>
      <trkpt lat="42.87953" lon="-0.13894">
        <ele>1536.88</ele>
        <time>2016-03-18T08:18:03Z</time>
      </trkpt>
      <trkpt lat="42.8795" lon="-0.13884">
        <ele>1539.65</ele>
        <time>2016-03-18T08:18:24Z</time>
      </trkpt>
      <trkpt lat="42.87952" lon="-0.13866">
        <ele>1542.55</ele>
        <time>2016-03-18T08:18:45Z</time>
      </trkpt>
      <trkpt lat="42.87954" lon="-0.13848">
        <ele>1545.78</ele>
        <time>2016-03-18T08:19:05Z</time>
      </trkpt>
      <trkpt lat="42.87954" lon="-0.13841">
        <ele>1548.72</ele>
        <time>2016-03-18T08:19:25Z</time>
      </trkpt>
      <trkpt lat="42.87947" lon="-0.13849">
        <ele>1551.94</ele>
        <time>2016-03-18T08:19:41Z</time>
      </trkpt>
      <trkpt lat="42.87938" lon="-0.13857">
        <ele>1555.06</ele>
        <time>2016-03-18T08:19:58Z</time>
      </trkpt>
      <trkpt lat="42.87928" lon="-0.13861">
        <ele>1558.22</ele>
        <time>2016-03-18T08:20:16Z</time>
      </trkpt>
      <trkpt lat="42.87919" lon="-0.13866">
        <ele>1561.29</ele>
        <time>2016-03-18T08:20:33Z</time>
      </trkpt>
      <trkpt lat="42.87911" lon="-0.13871">
        <ele>1564.43</ele>
        <time>2016-03-18T08:20:48Z</time>
      </trkpt>
      <trkpt lat="42.87907" lon="-0.13875">
        <ele>1567.36</ele>
        <time>2016-03-18T08:21:11Z</time>
      </trkpt>
      <trkpt lat="42.87901" lon="-0.13879">
        <ele>1568.89</ele>
        <time>2016-03-18T08:21:39Z</time>
      </trkpt>
      <trkpt lat="42.87892" lon="-0.13886">
        <ele>1571.94</ele>
        <time>2016-03-18T08:21:57Z</time>
      </trkpt>
      <trkpt lat="42.87884" lon="-0.13891">
        <ele>1575.03</ele>
        <time>2016-03-18T08:22:13Z</time>
      </trkpt>
      <trkpt lat="42.87884" lon="-0.13877">
        <ele>1576.33</ele>
        <time>2016-03-18T08:22:34Z</time>
      </trkpt>
      <trkpt lat="42.87886" lon="-0.13863">
        <ele>1579.49</ele>
        <time>2016-03-18T08:22:51Z</time>
      </trkpt>
      <trkpt lat="42.87884" lon="-0.1385">
        <ele>1582.66</ele>
        <time>2016-03-18T08:23:07Z</time>
      </trkpt>
      <trkpt lat="42.87883" lon="-0.13845">
        <ele>1584.93</ele>
        <time>2016-03-18T08:23:23Z</time>
      </trkpt>
      <trkpt lat="42.87883" lon="-0.13844">
        <ele>1583.86</ele>
        <time>2016-03-18T08:23:48Z</time>
      </trkpt>
      <trkpt lat="42.87882" lon="-0.1384">
        <ele>1583.7</ele>
        <time>2016-03-18T08:24:18Z</time>
      </trkpt>
      <trkpt lat="42.87882" lon="-0.13839">
        <ele>1584.09</ele>
        <time>2016-03-18T08:25:01Z</time>
      </trkpt>
      <trkpt lat="42.87882" lon="-0.13839">
        <ele>1583.93</ele>
        <time>2016-03-18T08:27:01Z</time>
      </trkpt>
      <trkpt lat="42.87883" lon="-0.1384">
        <ele>1583.76</ele>
        <time>2016-03-18T08:28:17Z</time>
      </trkpt>
      <trkpt lat="42.87883" lon="-0.1384">
        <ele>1584.03</ele>
        <time>2016-03-18T08:28:41Z</time>
      </trkpt>
      <trkpt lat="42.87883" lon="-0.13842">
        <ele>1585.11</ele>
        <time>2016-03-18T08:29:04Z</time>
      </trkpt>
      <trkpt lat="42.87878" lon="-0.13845">
        <ele>1585.65</ele>
        <time>2016-03-18T08:29:33Z</time>
      </trkpt>
      <trkpt lat="42.87867" lon="-0.13851">
        <ele>1588.76</ele>
        <time>2016-03-18T08:29:50Z</time>
      </trkpt>
      <trkpt lat="42.87858" lon="-0.13856">
        <ele>1591.83</ele>
        <time>2016-03-18T08:30:06Z</time>
      </trkpt>
      <trkpt lat="42.8785" lon="-0.1386">
        <ele>1594.12</ele>
        <time>2016-03-18T08:30:20Z</time>
      </trkpt>
      <trkpt lat="42.87839" lon="-0.13866">
        <ele>1596.64</ele>
        <time>2016-03-18T08:30:36Z</time>
      </trkpt>
      <trkpt lat="42.87825" lon="-0.13874">
        <ele>1599.27</ele>
        <time>2016-03-18T08:30:57Z</time>
      </trkpt>
      <trkpt lat="42.87815" lon="-0.13879">
        <ele>1601.66</ele>
        <time>2016-03-18T08:31:14Z</time>
      </trkpt>
      <trkpt lat="42.87811" lon="-0.1388">
        <ele>1603.26</ele>
        <time>2016-03-18T08:31:32Z</time>
      </trkpt>
      <trkpt lat="42.87811" lon="-0.13882">
        <ele>1603.37</ele>
        <time>2016-03-18T08:31:56Z</time>
      </trkpt>
      <trkpt lat="42.87799" lon="-0.13884">
        <ele>1605.25</ele>
        <time>2016-03-18T08:32:15Z</time>
      </trkpt>
      <trkpt lat="42.87799" lon="-0.13872">
        <ele>1608.31</ele>
        <time>2016-03-18T08:32:28Z</time>
      </trkpt>
      <trkpt lat="42.87797" lon="-0.13862">
        <ele>1611.41</ele>
        <time>2016-03-18T08:32:42Z</time>
      </trkpt>
      <trkpt lat="42.87785" lon="-0.13857">
        <ele>1614.48</ele>
        <time>2016-03-18T08:32:59Z</time>
      </trkpt>
      <trkpt lat="42.87782" lon="-0.13846">
        <ele>1617.49</ele>
        <time>2016-03-18T08:33:15Z</time>
      </trkpt>
      <trkpt lat="42.8778" lon="-0.13829">
        <ele>1619.77</ele>
        <time>2016-03-18T08:33:32Z</time>
      </trkpt>
      <trkpt lat="42.87779" lon="-0.13813">
        <ele>1622.42</ele>
        <time>2016-03-18T08:33:49Z</time>
      </trkpt>
      <trkpt lat="42.87775" lon="-0.13801">
        <ele>1625.49</ele>
        <time>2016-03-18T08:34:06Z</time>
      </trkpt>
      <trkpt lat="42.87764" lon="-0.13803">
        <ele>1628.3</ele>
        <time>2016-03-18T08:34:24Z</time>
      </trkpt>
      <trkpt lat="42.87749" lon="-0.13809">
        <ele>1631.37</ele>
        <time>2016-03-18T08:34:45Z</time>
      </trkpt>
      <trkpt lat="42.87733" lon="-0.13811">
        <ele>1634</ele>
        <time>2016-03-18T08:35:06Z</time>
      </trkpt>
      <trkpt lat="42.87719" lon="-0.13813">
        <ele>1637.02</ele>
        <time>2016-03-18T08:35:24Z</time>
      </trkpt>
      <trkpt lat="42.87704" lon="-0.13818">
        <ele>1639.99</ele>
        <time>2016-03-18T08:35:44Z</time>
      </trkpt>
      <trkpt lat="42.87689" lon="-0.13822">
        <ele>1642.92</ele>
        <time>2016-03-18T08:36:04Z</time>
      </trkpt>
      <trkpt lat="42.87673" lon="-0.13824">
        <ele>1645.47</ele>
        <time>2016-03-18T08:36:25Z</time>
      </trkpt>
      <trkpt lat="42.87662" lon="-0.13828">
        <ele>1648.48</ele>
        <time>2016-03-18T08:36:41Z</time>
      </trkpt>
      <trkpt lat="42.87646" lon="-0.13834">
        <ele>1651.39</ele>
        <time>2016-03-18T08:37:03Z</time>
      </trkpt>
      <trkpt lat="42.87636" lon="-0.13844">
        <ele>1654.43</ele>
        <time>2016-03-18T08:37:19Z</time>
      </trkpt>
      <trkpt lat="42.87631" lon="-0.13838">
        <ele>1656.65</ele>
        <time>2016-03-18T08:37:34Z</time>
      </trkpt>
      <trkpt lat="42.87624" lon="-0.13826">
        <ele>1658.18</ele>
        <time>2016-03-18T08:37:50Z</time>
      </trkpt>
      <trkpt lat="42.87617" lon="-0.13821">
        <ele>1661.32</ele>
        <time>2016-03-18T08:38:06Z</time>
      </trkpt>
      <trkpt lat="42.87608" lon="-0.13837">
        <ele>1664.03</ele>
        <time>2016-03-18T08:38:27Z</time>
      </trkpt>
      <trkpt lat="42.87598" lon="-0.13847">
        <ele>1666.79</ele>
        <time>2016-03-18T08:38:45Z</time>
      </trkpt>
      <trkpt lat="42.87585" lon="-0.13854">
        <ele>1669.89</ele>
        <time>2016-03-18T08:39:04Z</time>
      </trkpt>
      <trkpt lat="42.87573" lon="-0.1386">
        <ele>1672.92</ele>
        <time>2016-03-18T08:39:21Z</time>
      </trkpt>
      <trkpt lat="42.8756" lon="-0.13864">
        <ele>1675.38</ele>
        <time>2016-03-18T08:39:40Z</time>
      </trkpt>
      <trkpt lat="42.87561" lon="-0.13865">
        <ele>1676.79</ele>
        <time>2016-03-18T08:40:19Z</time>
      </trkpt>
      <trkpt lat="42.87553" lon="-0.13866">
        <ele>1677.53</ele>
        <time>2016-03-18T08:40:33Z</time>
      </trkpt>
      <trkpt lat="42.87539" lon="-0.13868">
        <ele>1680.27</ele>
        <time>2016-03-18T08:40:50Z</time>
      </trkpt>
      <trkpt lat="42.87528" lon="-0.13869">
        <ele>1683.45</ele>
        <time>2016-03-18T08:41:07Z</time>
      </trkpt>
      <trkpt lat="42.87516" lon="-0.13866">
        <ele>1686.45</ele>
        <time>2016-03-18T08:41:23Z</time>
      </trkpt>
      <trkpt lat="42.87502" lon="-0.1386">
        <ele>1689.39</ele>
        <time>2016-03-18T08:41:44Z</time>
      </trkpt>
      <trkpt lat="42.87494" lon="-0.13857">
        <ele>1692.6</ele>
        <time>2016-03-18T08:42:00Z</time>
      </trkpt>
      <trkpt lat="42.87483" lon="-0.13857">
        <ele>1695.75</ele>
        <time>2016-03-18T08:42:20Z</time>
      </trkpt>
      <trkpt lat="42.87471" lon="-0.13857">
        <ele>1698.5</ele>
        <time>2016-03-18T08:42:41Z</time>
      </trkpt>
      <trkpt lat="42.87463" lon="-0.13858">
        <ele>1701.68</ele>
        <time>2016-03-18T08:42:58Z</time>
      </trkpt>
      <trkpt lat="42.87455" lon="-0.1386">
        <ele>1703.49</ele>
        <time>2016-03-18T08:43:11Z</time>
      </trkpt>
      <trkpt lat="42.87449" lon="-0.13865">
        <ele>1704.54</ele>
        <time>2016-03-18T08:43:25Z</time>
      </trkpt>
      <trkpt lat="42.87439" lon="-0.13874">
        <ele>1706.16</ele>
        <time>2016-03-18T08:43:43Z</time>
      </trkpt>
      <trkpt lat="42.8743" lon="-0.13884">
        <ele>1708.04</ele>
        <time>2016-03-18T08:44:02Z</time>
      </trkpt>
      <trkpt lat="42.87426" lon="-0.13887">
        <ele>1707.94</ele>
        <time>2016-03-18T08:44:13Z</time>
      </trkpt>
      <trkpt lat="42.87419" lon="-0.1389">
        <ele>1708.2</ele>
        <time>2016-03-18T08:44:40Z</time>
      </trkpt>
      <trkpt lat="42.8741" lon="-0.13896">
        <ele>1709.33</ele>
        <time>2016-03-18T08:44:52Z</time>
      </trkpt>
      <trkpt lat="42.87409" lon="-0.13896">
        <ele>1709.38</ele>
        <time>2016-03-18T08:44:53Z</time>
      </trkpt>
      <trkpt lat="42.87396" lon="-0.13904">
        <ele>1709.67</ele>
        <time>2016-03-18T08:45:11Z</time>
      </trkpt>
      <trkpt lat="42.87393" lon="-0.13907">
        <ele>1710</ele>
        <time>2016-03-18T08:45:15Z</time>
      </trkpt>
      <trkpt lat="42.87382" lon="-0.13916">
        <ele>1711.15</ele>
        <time>2016-03-18T08:45:32Z</time>
      </trkpt>
      <trkpt lat="42.87372" lon="-0.13923">
        <ele>1712.47</ele>
        <time>2016-03-18T08:45:47Z</time>
      </trkpt>
      <trkpt lat="42.87359" lon="-0.13932">
        <ele>1714.14</ele>
        <time>2016-03-18T08:46:09Z</time>
      </trkpt>
      <trkpt lat="42.87351" lon="-0.13938">
        <ele>1714.97</ele>
        <time>2016-03-18T08:46:24Z</time>
      </trkpt>
      <trkpt lat="42.87343" lon="-0.13945">
        <ele>1715.24</ele>
        <time>2016-03-18T08:46:40Z</time>
      </trkpt>
      <trkpt lat="42.87335" lon="-0.1395">
        <ele>1715.28</ele>
        <time>2016-03-18T08:46:55Z</time>
      </trkpt>
      <trkpt lat="42.87329" lon="-0.13955">
        <ele>1715.33</ele>
        <time>2016-03-18T08:47:07Z</time>
      </trkpt>
      <trkpt lat="42.87318" lon="-0.1396">
        <ele>1718.15</ele>
        <time>2016-03-18T08:47:25Z</time>
      </trkpt>
      <trkpt lat="42.87312" lon="-0.13961">
        <ele>1719.73</ele>
        <time>2016-03-18T08:47:38Z</time>
      </trkpt>
      <trkpt lat="42.87305" lon="-0.13964">
        <ele>1720.82</ele>
        <time>2016-03-18T08:47:50Z</time>
      </trkpt>
      <trkpt lat="42.87294" lon="-0.13969">
        <ele>1722.6</ele>
        <time>2016-03-18T08:48:08Z</time>
      </trkpt>
      <trkpt lat="42.87287" lon="-0.13971">
        <ele>1724.8</ele>
        <time>2016-03-18T08:48:28Z</time>
      </trkpt>
      <trkpt lat="42.87282" lon="-0.13975">
        <ele>1726.2</ele>
        <time>2016-03-18T08:48:49Z</time>
      </trkpt>
      <trkpt lat="42.87272" lon="-0.13982">
        <ele>1727.84</ele>
        <time>2016-03-18T08:49:06Z</time>
      </trkpt>
      <trkpt lat="42.87263" lon="-0.13989">
        <ele>1728.77</ele>
        <time>2016-03-18T08:49:21Z</time>
      </trkpt>
      <trkpt lat="42.87255" lon="-0.13999">
        <ele>1731.27</ele>
        <time>2016-03-18T08:49:41Z</time>
      </trkpt>
      <trkpt lat="42.87247" lon="-0.14008">
        <ele>1733.93</ele>
        <time>2016-03-18T08:50:02Z</time>
      </trkpt>
      <trkpt lat="42.87242" lon="-0.14013">
        <ele>1735.63</ele>
        <time>2016-03-18T08:50:20Z</time>
      </trkpt>
      <trkpt lat="42.87235" lon="-0.14022">
        <ele>1738.61</ele>
        <time>2016-03-18T08:50:39Z</time>
      </trkpt>
      <trkpt lat="42.87227" lon="-0.14031">
        <ele>1740.62</ele>
        <time>2016-03-18T08:51:01Z</time>
      </trkpt>
      <trkpt lat="42.87219" lon="-0.14035">
        <ele>1742.21</ele>
        <time>2016-03-18T08:51:18Z</time>
      </trkpt>
      <trkpt lat="42.87215" lon="-0.14037">
        <ele>1743.03</ele>
        <time>2016-03-18T08:51:32Z</time>
      </trkpt>
      <trkpt lat="42.87207" lon="-0.14037">
        <ele>1744.88</ele>
        <time>2016-03-18T08:51:53Z</time>
      </trkpt>
      <trkpt lat="42.87208" lon="-0.14037">
        <ele>1745.08</ele>
        <time>2016-03-18T08:52:13Z</time>
      </trkpt>
      <trkpt lat="42.87207" lon="-0.14034">
        <ele>1744.82</ele>
        <time>2016-03-18T08:52:45Z</time>
      </trkpt>
      <trkpt lat="42.87209" lon="-0.14036">
        <ele>1744.53</ele>
        <time>2016-03-18T08:53:36Z</time>
      </trkpt>
      <trkpt lat="42.87209" lon="-0.14037">
        <ele>1745.25</ele>
        <time>2016-03-18T08:54:06Z</time>
      </trkpt>
      <trkpt lat="42.87209" lon="-0.14038">
        <ele>1745.37</ele>
        <time>2016-03-18T08:54:50Z</time>
      </trkpt>
      <trkpt lat="42.87206" lon="-0.14037">
        <ele>1745.57</ele>
        <time>2016-03-18T08:55:45Z</time>
      </trkpt>
      <trkpt lat="42.872" lon="-0.14034">
        <ele>1745.81</ele>
        <time>2016-03-18T08:55:55Z</time>
      </trkpt>
      <trkpt lat="42.87194" lon="-0.14032">
        <ele>1745.83</ele>
        <time>2016-03-18T08:56:01Z</time>
      </trkpt>
      <trkpt lat="42.87188" lon="-0.1403">
        <ele>1745.74</ele>
        <time>2016-03-18T08:56:07Z</time>
      </trkpt>
      <trkpt lat="42.87177" lon="-0.14021">
        <ele>1746.47</ele>
        <time>2016-03-18T08:56:23Z</time>
      </trkpt>
      <trkpt lat="42.87165" lon="-0.14015">
        <ele>1747.32</ele>
        <time>2016-03-18T08:56:40Z</time>
      </trkpt>
      <trkpt lat="42.87152" lon="-0.14004">
        <ele>1747.02</ele>
        <time>2016-03-18T08:56:55Z</time>
      </trkpt>
      <trkpt lat="42.8714" lon="-0.13992">
        <ele>1748.55</ele>
        <time>2016-03-18T08:57:10Z</time>
      </trkpt>
      <trkpt lat="42.87126" lon="-0.13982">
        <ele>1750.26</ele>
        <time>2016-03-18T08:57:28Z</time>
      </trkpt>
      <trkpt lat="42.87109" lon="-0.13977">
        <ele>1751.86</ele>
        <time>2016-03-18T08:57:47Z</time>
      </trkpt>
      <trkpt lat="42.87096" lon="-0.13971">
        <ele>1753.47</ele>
        <time>2016-03-18T08:58:03Z</time>
      </trkpt>
      <trkpt lat="42.87083" lon="-0.13959">
        <ele>1756.48</ele>
        <time>2016-03-18T08:58:22Z</time>
      </trkpt>
      <trkpt lat="42.87068" lon="-0.13952">
        <ele>1757.63</ele>
        <time>2016-03-18T08:58:40Z</time>
      </trkpt>
      <trkpt lat="42.87055" lon="-0.13947">
        <ele>1760.02</ele>
        <time>2016-03-18T08:58:57Z</time>
      </trkpt>
      <trkpt lat="42.87042" lon="-0.13947">
        <ele>1761.79</ele>
        <time>2016-03-18T08:59:15Z</time>
      </trkpt>
      <trkpt lat="42.87032" lon="-0.13946">
        <ele>1764.93</ele>
        <time>2016-03-18T08:59:31Z</time>
      </trkpt>
      <trkpt lat="42.87022" lon="-0.13942">
        <ele>1766.7</ele>
        <time>2016-03-18T08:59:44Z</time>
      </trkpt>
      <trkpt lat="42.87011" lon="-0.13938">
        <ele>1768.27</ele>
        <time>2016-03-18T09:00:00Z</time>
      </trkpt>
      <trkpt lat="42.87003" lon="-0.13933">
        <ele>1770.51</ele>
        <time>2016-03-18T09:00:16Z</time>
      </trkpt>
      <trkpt lat="42.86993" lon="-0.13931">
        <ele>1773.36</ele>
        <time>2016-03-18T09:00:34Z</time>
      </trkpt>
      <trkpt lat="42.86986" lon="-0.1393">
        <ele>1776.38</ele>
        <time>2016-03-18T09:00:46Z</time>
      </trkpt>
      <trkpt lat="42.86977" lon="-0.13932">
        <ele>1779.58</ele>
        <time>2016-03-18T09:01:03Z</time>
      </trkpt>
      <trkpt lat="42.86969" lon="-0.13932">
        <ele>1782.81</ele>
        <time>2016-03-18T09:01:17Z</time>
      </trkpt>
      <trkpt lat="42.8696" lon="-0.13932">
        <ele>1786.08</ele>
        <time>2016-03-18T09:01:37Z</time>
      </trkpt>
      <trkpt lat="42.86957" lon="-0.13933">
        <ele>1789.12</ele>
        <time>2016-03-18T09:01:55Z</time>
      </trkpt>
      <trkpt lat="42.86948" lon="-0.13935">
        <ele>1791</ele>
        <time>2016-03-18T09:02:10Z</time>
      </trkpt>
      <trkpt lat="42.86943" lon="-0.13934">
        <ele>1794.08</ele>
        <time>2016-03-18T09:02:22Z</time>
      </trkpt>
      <trkpt lat="42.86933" lon="-0.13936">
        <ele>1797.22</ele>
        <time>2016-03-18T09:02:39Z</time>
      </trkpt>
      <trkpt lat="42.86925" lon="-0.13937">
        <ele>1800.56</ele>
        <time>2016-03-18T09:02:53Z</time>
      </trkpt>
      <trkpt lat="42.86917" lon="-0.13933">
        <ele>1803.48</ele>
        <time>2016-03-18T09:03:11Z</time>
      </trkpt>
      <trkpt lat="42.86908" lon="-0.13931">
        <ele>1806.41</ele>
        <time>2016-03-18T09:03:29Z</time>
      </trkpt>
      <trkpt lat="42.86903" lon="-0.13929">
        <ele>1808.92</ele>
        <time>2016-03-18T09:03:44Z</time>
      </trkpt>
      <trkpt lat="42.86899" lon="-0.13929">
        <ele>1810.45</ele>
        <time>2016-03-18T09:04:08Z</time>
      </trkpt>
      <trkpt lat="42.86891" lon="-0.13927">
        <ele>1813.56</ele>
        <time>2016-03-18T09:04:23Z</time>
      </trkpt>
      <trkpt lat="42.86888" lon="-0.13924">
        <ele>1816.6</ele>
        <time>2016-03-18T09:04:40Z</time>
      </trkpt>
      <trkpt lat="42.86898" lon="-0.13907">
        <ele>1819.97</ele>
        <time>2016-03-18T09:05:03Z</time>
      </trkpt>
      <trkpt lat="42.86901" lon="-0.13898">
        <ele>1823.21</ele>
        <time>2016-03-18T09:05:18Z</time>
      </trkpt>
      <trkpt lat="42.86894" lon="-0.13899">
        <ele>1824.86</ele>
        <time>2016-03-18T09:05:34Z</time>
      </trkpt>
      <trkpt lat="42.86887" lon="-0.13898">
        <ele>1827.92</ele>
        <time>2016-03-18T09:05:49Z</time>
      </trkpt>
      <trkpt lat="42.86879" lon="-0.13896">
        <ele>1830.93</ele>
        <time>2016-03-18T09:06:05Z</time>
      </trkpt>
      <trkpt lat="42.86873" lon="-0.13899">
        <ele>1833.98</ele>
        <time>2016-03-18T09:06:19Z</time>
      </trkpt>
      <trkpt lat="42.86865" lon="-0.13903">
        <ele>1836.32</ele>
        <time>2016-03-18T09:06:33Z</time>
      </trkpt>
      <trkpt lat="42.86863" lon="-0.13895">
        <ele>1838.15</ele>
        <time>2016-03-18T09:06:47Z</time>
      </trkpt>
      <trkpt lat="42.8686" lon="-0.13892">
        <ele>1839.44</ele>
        <time>2016-03-18T09:07:01Z</time>
      </trkpt>
      <trkpt lat="42.86852" lon="-0.13895">
        <ele>1842.61</ele>
        <time>2016-03-18T09:07:19Z</time>
      </trkpt>
      <trkpt lat="42.86852" lon="-0.13894">
        <ele>1843.69</ele>
        <time>2016-03-18T09:07:37Z</time>
      </trkpt>
      <trkpt lat="42.8685" lon="-0.13897">
        <ele>1843.9</ele>
        <time>2016-03-18T09:07:50Z</time>
      </trkpt>
      <trkpt lat="42.8685" lon="-0.13897">
        <ele>1844.66</ele>
        <time>2016-03-18T09:08:18Z</time>
      </trkpt>
      <trkpt lat="42.8685" lon="-0.13899">
        <ele>1843.98</ele>
        <time>2016-03-18T09:08:41Z</time>
      </trkpt>
      <trkpt lat="42.86851" lon="-0.13896">
        <ele>1844.12</ele>
        <time>2016-03-18T09:09:11Z</time>
      </trkpt>
      <trkpt lat="42.8685" lon="-0.13898">
        <ele>1844.14</ele>
        <time>2016-03-18T09:09:46Z</time>
      </trkpt>
      <trkpt lat="42.86849" lon="-0.13903">
        <ele>1844.13</ele>
        <time>2016-03-18T09:10:08Z</time>
      </trkpt>
      <trkpt lat="42.86849" lon="-0.13902">
        <ele>1844.24</ele>
        <time>2016-03-18T09:10:40Z</time>
      </trkpt>
      <trkpt lat="42.8685" lon="-0.13901">
        <ele>1844.51</ele>
        <time>2016-03-18T09:12:33Z</time>
      </trkpt>
      <trkpt lat="42.8685" lon="-0.13897">
        <ele>1844.59</ele>
        <time>2016-03-18T09:13:03Z</time>
      </trkpt>
      <trkpt lat="42.86851" lon="-0.13896">
        <ele>1845.6</ele>
        <time>2016-03-18T09:13:29Z</time>
      </trkpt>
      <trkpt lat="42.86852" lon="-0.139">
        <ele>1845.81</ele>
        <time>2016-03-18T09:13:37Z</time>
      </trkpt>
      <trkpt lat="42.86848" lon="-0.13909">
        <ele>1845.73</ele>
        <time>2016-03-18T09:13:57Z</time>
      </trkpt>
      <trkpt lat="42.86841" lon="-0.13909">
        <ele>1846.5</ele>
        <time>2016-03-18T09:14:05Z</time>
      </trkpt>
      <trkpt lat="42.86825" lon="-0.13908">
        <ele>1848.97</ele>
        <time>2016-03-18T09:14:24Z</time>
      </trkpt>
      <trkpt lat="42.8681" lon="-0.1391">
        <ele>1851.61</ele>
        <time>2016-03-18T09:14:41Z</time>
      </trkpt>
      <trkpt lat="42.8679" lon="-0.13909">
        <ele>1853.08</ele>
        <time>2016-03-18T09:15:02Z</time>
      </trkpt>
      <trkpt lat="42.86775" lon="-0.13909">
        <ele>1853.37</ele>
        <time>2016-03-18T09:15:18Z</time>
      </trkpt>
      <trkpt lat="42.86761" lon="-0.13907">
        <ele>1856.44</ele>
        <time>2016-03-18T09:15:38Z</time>
      </trkpt>
      <trkpt lat="42.86749" lon="-0.13901">
        <ele>1859</ele>
        <time>2016-03-18T09:15:58Z</time>
      </trkpt>
      <trkpt lat="42.86739" lon="-0.13902">
        <ele>1862.16</ele>
        <time>2016-03-18T09:16:14Z</time>
      </trkpt>
      <trkpt lat="42.86743" lon="-0.13897">
        <ele>1864.12</ele>
        <time>2016-03-18T09:16:29Z</time>
      </trkpt>
      <trkpt lat="42.86744" lon="-0.13892">
        <ele>1866.51</ele>
        <time>2016-03-18T09:16:45Z</time>
      </trkpt>
      <trkpt lat="42.86731" lon="-0.13896">
        <ele>1869.32</ele>
        <time>2016-03-18T09:17:07Z</time>
      </trkpt>
      <trkpt lat="42.86723" lon="-0.13901">
        <ele>1872.07</ele>
        <time>2016-03-18T09:17:25Z</time>
      </trkpt>
      <trkpt lat="42.86716" lon="-0.13905">
        <ele>1874.77</ele>
        <time>2016-03-18T09:17:40Z</time>
      </trkpt>
      <trkpt lat="42.86707" lon="-0.13914">
        <ele>1877.78</ele>
        <time>2016-03-18T09:17:59Z</time>
      </trkpt>
      <trkpt lat="42.86707" lon="-0.13908">
        <ele>1879.69</ele>
        <time>2016-03-18T09:18:12Z</time>
      </trkpt>
      <trkpt lat="42.86704" lon="-0.13908">
        <ele>1881.61</ele>
        <time>2016-03-18T09:18:26Z</time>
      </trkpt>
      <trkpt lat="42.86693" lon="-0.13915">
        <ele>1884.68</ele>
        <time>2016-03-18T09:18:48Z</time>
      </trkpt>
      <trkpt lat="42.86684" lon="-0.13915">
        <ele>1887.86</ele>
        <time>2016-03-18T09:19:04Z</time>
      </trkpt>
      <trkpt lat="42.86675" lon="-0.13916">
        <ele>1891.06</ele>
        <time>2016-03-18T09:19:21Z</time>
      </trkpt>
      <trkpt lat="42.86665" lon="-0.13918">
        <ele>1894.11</ele>
        <time>2016-03-18T09:19:38Z</time>
      </trkpt>
      <trkpt lat="42.86648" lon="-0.13919">
        <ele>1896.67</ele>
        <time>2016-03-18T09:20:02Z</time>
      </trkpt>
      <trkpt lat="42.86631" lon="-0.13918">
        <ele>1898.04</ele>
        <time>2016-03-18T09:20:23Z</time>
      </trkpt>
      <trkpt lat="42.86614" lon="-0.13918">
        <ele>1900.38</ele>
        <time>2016-03-18T09:20:44Z</time>
      </trkpt>
      <trkpt lat="42.866" lon="-0.13915">
        <ele>1903.75</ele>
        <time>2016-03-18T09:21:05Z</time>
      </trkpt>
      <trkpt lat="42.86587" lon="-0.13913">
        <ele>1905.73</ele>
        <time>2016-03-18T09:21:23Z</time>
      </trkpt>
      <trkpt lat="42.86571" lon="-0.13909">
        <ele>1906.62</ele>
        <time>2016-03-18T09:21:43Z</time>
      </trkpt>
      <trkpt lat="42.86558" lon="-0.13907">
        <ele>1909.33</ele>
        <time>2016-03-18T09:22:02Z</time>
      </trkpt>
      <trkpt lat="42.86545" lon="-0.13908">
        <ele>1911.61</ele>
        <time>2016-03-18T09:22:21Z</time>
      </trkpt>
      <trkpt lat="42.86534" lon="-0.13909">
        <ele>1914.78</ele>
        <time>2016-03-18T09:22:38Z</time>
      </trkpt>
      <trkpt lat="42.86525" lon="-0.13913">
        <ele>1918</ele>
        <time>2016-03-18T09:22:56Z</time>
      </trkpt>
      <trkpt lat="42.86517" lon="-0.13923">
        <ele>1921.04</ele>
        <time>2016-03-18T09:23:13Z</time>
      </trkpt>
      <trkpt lat="42.86518" lon="-0.13922">
        <ele>1922.83</ele>
        <time>2016-03-18T09:23:33Z</time>
      </trkpt>
      <trkpt lat="42.86506" lon="-0.13927">
        <ele>1924.67</ele>
        <time>2016-03-18T09:23:56Z</time>
      </trkpt>
      <trkpt lat="42.86502" lon="-0.1393">
        <ele>1924.76</ele>
        <time>2016-03-18T09:24:21Z</time>
      </trkpt>
      <trkpt lat="42.86498" lon="-0.1393">
        <ele>1925.31</ele>
        <time>2016-03-18T09:24:37Z</time>
      </trkpt>
      <trkpt lat="42.8649" lon="-0.13937">
        <ele>1926.2</ele>
        <time>2016-03-18T09:24:56Z</time>
      </trkpt>
      <trkpt lat="42.86485" lon="-0.13939">
        <ele>1927.45</ele>
        <time>2016-03-18T09:25:08Z</time>
      </trkpt>
      <trkpt lat="42.86481" lon="-0.13939">
        <ele>1928.53</ele>
        <time>2016-03-18T09:25:17Z</time>
      </trkpt>
      <trkpt lat="42.86477" lon="-0.13946">
        <ele>1930.57</ele>
        <time>2016-03-18T09:25:31Z</time>
      </trkpt>
      <trkpt lat="42.86477" lon="-0.13953">
        <ele>1932.9</ele>
        <time>2016-03-18T09:25:44Z</time>
      </trkpt>
      <trkpt lat="42.86471" lon="-0.13967">
        <ele>1935.93</ele>
        <time>2016-03-18T09:26:01Z</time>
      </trkpt>
      <trkpt lat="42.86466" lon="-0.1398">
        <ele>1938.75</ele>
        <time>2016-03-18T09:26:17Z</time>
      </trkpt>
      <trkpt lat="42.86464" lon="-0.13974">
        <ele>1940.88</ele>
        <time>2016-03-18T09:26:34Z</time>
      </trkpt>
      <trkpt lat="42.86463" lon="-0.13966">
        <ele>1942.47</ele>
        <time>2016-03-18T09:26:45Z</time>
      </trkpt>
      <trkpt lat="42.86459" lon="-0.13957">
        <ele>1944.36</ele>
        <time>2016-03-18T09:26:58Z</time>
      </trkpt>
      <trkpt lat="42.86454" lon="-0.13945">
        <ele>1947.48</ele>
        <time>2016-03-18T09:27:18Z</time>
      </trkpt>
      <trkpt lat="42.86452" lon="-0.13939">
        <ele>1948.59</ele>
        <time>2016-03-18T09:27:31Z</time>
      </trkpt>
      <trkpt lat="42.86443" lon="-0.13944">
        <ele>1950.58</ele>
        <time>2016-03-18T09:27:46Z</time>
      </trkpt>
      <trkpt lat="42.86439" lon="-0.13937">
        <ele>1953.6</ele>
        <time>2016-03-18T09:28:02Z</time>
      </trkpt>
      <trkpt lat="42.86438" lon="-0.13949">
        <ele>1955.81</ele>
        <time>2016-03-18T09:28:21Z</time>
      </trkpt>
      <trkpt lat="42.8644" lon="-0.13955">
        <ele>1958.02</ele>
        <time>2016-03-18T09:28:33Z</time>
      </trkpt>
      <trkpt lat="42.86439" lon="-0.13963">
        <ele>1960.69</ele>
        <time>2016-03-18T09:28:46Z</time>
      </trkpt>
      <trkpt lat="42.86436" lon="-0.13968">
        <ele>1963.22</ele>
        <time>2016-03-18T09:29:07Z</time>
      </trkpt>
      <trkpt lat="42.86431" lon="-0.13972">
        <ele>1966.28</ele>
        <time>2016-03-18T09:29:24Z</time>
      </trkpt>
      <trkpt lat="42.86423" lon="-0.13961">
        <ele>1968.99</ele>
        <time>2016-03-18T09:29:42Z</time>
      </trkpt>
      <trkpt lat="42.8642" lon="-0.13956">
        <ele>1972.23</ele>
        <time>2016-03-18T09:29:52Z</time>
      </trkpt>
      <trkpt lat="42.86413" lon="-0.13947">
        <ele>1975.28</ele>
        <time>2016-03-18T09:30:11Z</time>
      </trkpt>
      <trkpt lat="42.86413" lon="-0.13949">
        <ele>1977</ele>
        <time>2016-03-18T09:30:29Z</time>
      </trkpt>
      <trkpt lat="42.86406" lon="-0.13938">
        <ele>1980.06</ele>
        <time>2016-03-18T09:30:49Z</time>
      </trkpt>
      <trkpt lat="42.86402" lon="-0.13948">
        <ele>1983.23</ele>
        <time>2016-03-18T09:31:09Z</time>
      </trkpt>
      <trkpt lat="42.86397" lon="-0.13954">
        <ele>1985.93</ele>
        <time>2016-03-18T09:31:21Z</time>
      </trkpt>
      <trkpt lat="42.86389" lon="-0.1396">
        <ele>1989.04</ele>
        <time>2016-03-18T09:31:37Z</time>
      </trkpt>
      <trkpt lat="42.86385" lon="-0.13966">
        <ele>1991.8</ele>
        <time>2016-03-18T09:31:57Z</time>
      </trkpt>
      <trkpt lat="42.8638" lon="-0.13957">
        <ele>1994.15</ele>
        <time>2016-03-18T09:32:13Z</time>
      </trkpt>
      <trkpt lat="42.86374" lon="-0.13948">
        <ele>1997.23</ele>
        <time>2016-03-18T09:32:30Z</time>
      </trkpt>
      <trkpt lat="42.8637" lon="-0.13941">
        <ele>1999.56</ele>
        <time>2016-03-18T09:32:43Z</time>
      </trkpt>
      <trkpt lat="42.86365" lon="-0.13931">
        <ele>2002.83</ele>
        <time>2016-03-18T09:32:58Z</time>
      </trkpt>
      <trkpt lat="42.8636" lon="-0.13937">
        <ele>2005.58</ele>
        <time>2016-03-18T09:33:29Z</time>
      </trkpt>
      <trkpt lat="42.86354" lon="-0.1395">
        <ele>2007.86</ele>
        <time>2016-03-18T09:33:47Z</time>
      </trkpt>
      <trkpt lat="42.86349" lon="-0.13963">
        <ele>2011.23</ele>
        <time>2016-03-18T09:34:05Z</time>
      </trkpt>
      <trkpt lat="42.86347" lon="-0.13969">
        <ele>2013.68</ele>
        <time>2016-03-18T09:34:29Z</time>
      </trkpt>
      <trkpt lat="42.86345" lon="-0.13983">
        <ele>2016.81</ele>
        <time>2016-03-18T09:34:49Z</time>
      </trkpt>
      <trkpt lat="42.86344" lon="-0.13982">
        <ele>2018.8</ele>
        <time>2016-03-18T09:35:08Z</time>
      </trkpt>
      <trkpt lat="42.86343" lon="-0.13979">
        <ele>2019.05</ele>
        <time>2016-03-18T09:35:29Z</time>
      </trkpt>
      <trkpt lat="42.86334" lon="-0.13963">
        <ele>2022.09</ele>
        <time>2016-03-18T09:35:55Z</time>
      </trkpt>
      <trkpt lat="42.86328" lon="-0.13953">
        <ele>2025.32</ele>
        <time>2016-03-18T09:36:12Z</time>
      </trkpt>
      <trkpt lat="42.86324" lon="-0.13944">
        <ele>2028.4</ele>
        <time>2016-03-18T09:36:32Z</time>
      </trkpt>
      <trkpt lat="42.86319" lon="-0.13934">
        <ele>2031.5</ele>
        <time>2016-03-18T09:36:49Z</time>
      </trkpt>
      <trkpt lat="42.86315" lon="-0.13925">
        <ele>2034.35</ele>
        <time>2016-03-18T09:37:11Z</time>
      </trkpt>
      <trkpt lat="42.86311" lon="-0.13933">
        <ele>2036.09</ele>
        <time>2016-03-18T09:37:26Z</time>
      </trkpt>
      <trkpt lat="42.86309" lon="-0.13939">
        <ele>2037.95</ele>
        <time>2016-03-18T09:37:49Z</time>
      </trkpt>
      <trkpt lat="42.86308" lon="-0.13933">
        <ele>2037.21</ele>
        <time>2016-03-18T09:38:11Z</time>
      </trkpt>
      <trkpt lat="42.86303" lon="-0.13932">
        <ele>2037.03</ele>
        <time>2016-03-18T09:38:28Z</time>
      </trkpt>
      <trkpt lat="42.86302" lon="-0.13927">
        <ele>2037.17</ele>
        <time>2016-03-18T09:38:56Z</time>
      </trkpt>
      <trkpt lat="42.86301" lon="-0.13924">
        <ele>2036.92</ele>
        <time>2016-03-18T09:39:17Z</time>
      </trkpt>
      <trkpt lat="42.86305" lon="-0.13931">
        <ele>2038</ele>
        <time>2016-03-18T09:39:40Z</time>
      </trkpt>
      <trkpt lat="42.86309" lon="-0.13939">
        <ele>2038.27</ele>
        <time>2016-03-18T09:40:05Z</time>
      </trkpt>
      <trkpt lat="42.86305" lon="-0.13957">
        <ele>2041.27</ele>
        <time>2016-03-18T09:40:26Z</time>
      </trkpt>
      <trkpt lat="42.86303" lon="-0.1397">
        <ele>2044.28</ele>
        <time>2016-03-18T09:40:48Z</time>
      </trkpt>
      <trkpt lat="42.86298" lon="-0.13956">
        <ele>2046.6</ele>
        <time>2016-03-18T09:41:10Z</time>
      </trkpt>
      <trkpt lat="42.86294" lon="-0.13942">
        <ele>2049.62</ele>
        <time>2016-03-18T09:41:31Z</time>
      </trkpt>
      <trkpt lat="42.8629" lon="-0.1393">
        <ele>2052.75</ele>
        <time>2016-03-18T09:41:50Z</time>
      </trkpt>
      <trkpt lat="42.86287" lon="-0.13925">
        <ele>2055.71</ele>
        <time>2016-03-18T09:42:12Z</time>
      </trkpt>
      <trkpt lat="42.86283" lon="-0.1394">
        <ele>2058.47</ele>
        <time>2016-03-18T09:42:38Z</time>
      </trkpt>
      <trkpt lat="42.86279" lon="-0.13952">
        <ele>2060.03</ele>
        <time>2016-03-18T09:43:03Z</time>
      </trkpt>
      <trkpt lat="42.86278" lon="-0.13954">
        <ele>2061.69</ele>
        <time>2016-03-18T09:43:22Z</time>
      </trkpt>
      <trkpt lat="42.86277" lon="-0.1395">
        <ele>2062.13</ele>
        <time>2016-03-18T09:43:42Z</time>
      </trkpt>
      <trkpt lat="42.86275" lon="-0.13946">
        <ele>2063.23</ele>
        <time>2016-03-18T09:44:02Z</time>
      </trkpt>
      <trkpt lat="42.86274" lon="-0.1394">
        <ele>2064.13</ele>
        <time>2016-03-18T09:44:13Z</time>
      </trkpt>
      <trkpt lat="42.86272" lon="-0.13935">
        <ele>2063.9</ele>
        <time>2016-03-18T09:44:24Z</time>
      </trkpt>
      <trkpt lat="42.8627" lon="-0.13921">
        <ele>2067.09</ele>
        <time>2016-03-18T09:44:41Z</time>
      </trkpt>
      <trkpt lat="42.86267" lon="-0.13944">
        <ele>2070.1</ele>
        <time>2016-03-18T09:45:32Z</time>
      </trkpt>
      <trkpt lat="42.86261" lon="-0.13941">
        <ele>2071.1</ele>
        <time>2016-03-18T09:46:05Z</time>
      </trkpt>
      <trkpt lat="42.86259" lon="-0.13922">
        <ele>2074.19</ele>
        <time>2016-03-18T09:46:58Z</time>
      </trkpt>
      <trkpt lat="42.86258" lon="-0.1394">
        <ele>2077.24</ele>
        <time>2016-03-18T09:47:47Z</time>
      </trkpt>
      <trkpt lat="42.86255" lon="-0.13939">
        <ele>2076.99</ele>
        <time>2016-03-18T09:48:54Z</time>
      </trkpt>
      <trkpt lat="42.86259" lon="-0.1392">
        <ele>2080.01</ele>
        <time>2016-03-18T09:49:53Z</time>
      </trkpt>
      <trkpt lat="42.86253" lon="-0.13918">
        <ele>2083.22</ele>
        <time>2016-03-18T09:50:42Z</time>
      </trkpt>
      <trkpt lat="42.8625" lon="-0.13914">
        <ele>2086.23</ele>
        <time>2016-03-18T09:51:07Z</time>
      </trkpt>
      <trkpt lat="42.86244" lon="-0.1393">
        <ele>2089.24</ele>
        <time>2016-03-18T09:51:29Z</time>
      </trkpt>
      <trkpt lat="42.8624" lon="-0.1393">
        <ele>2091.04</ele>
        <time>2016-03-18T09:52:07Z</time>
      </trkpt>
      <trkpt lat="42.86238" lon="-0.13923">
        <ele>2092.48</ele>
        <time>2016-03-18T09:52:29Z</time>
      </trkpt>
      <trkpt lat="42.86237" lon="-0.13918">
        <ele>2094.16</ele>
        <time>2016-03-18T09:52:51Z</time>
      </trkpt>
      <trkpt lat="42.86232" lon="-0.13915">
        <ele>2095.11</ele>
        <time>2016-03-18T09:53:16Z</time>
      </trkpt>
      <trkpt lat="42.86234" lon="-0.13918">
        <ele>2095.47</ele>
        <time>2016-03-18T09:53:46Z</time>
      </trkpt>
      <trkpt lat="42.86232" lon="-0.13914">
        <ele>2096.05</ele>
        <time>2016-03-18T09:54:04Z</time>
      </trkpt>
      <trkpt lat="42.8623" lon="-0.13915">
        <ele>2098.05</ele>
        <time>2016-03-18T09:54:26Z</time>
      </trkpt>
      <trkpt lat="42.86228" lon="-0.13901">
        <ele>2100.16</ele>
        <time>2016-03-18T09:54:45Z</time>
      </trkpt>
      <trkpt lat="42.86227" lon="-0.13898">
        <ele>2102.56</ele>
        <time>2016-03-18T09:55:05Z</time>
      </trkpt>
      <trkpt lat="42.86223" lon="-0.13899">
        <ele>2104.39</ele>
        <time>2016-03-18T09:55:22Z</time>
      </trkpt>
      <trkpt lat="42.86227" lon="-0.13887">
        <ele>2107.32</ele>
        <time>2016-03-18T09:55:46Z</time>
      </trkpt>
      <trkpt lat="42.86221" lon="-0.13889">
        <ele>2108.4</ele>
        <time>2016-03-18T09:56:05Z</time>
      </trkpt>
      <trkpt lat="42.86214" lon="-0.13895">
        <ele>2111.05</ele>
        <time>2016-03-18T09:56:28Z</time>
      </trkpt>
      <trkpt lat="42.86214" lon="-0.13891">
        <ele>2110.47</ele>
        <time>2016-03-18T09:56:41Z</time>
      </trkpt>
      <trkpt lat="42.86216" lon="-0.1388">
        <ele>2113.72</ele>
        <time>2016-03-18T09:56:57Z</time>
      </trkpt>
      <trkpt lat="42.86219" lon="-0.13878">
        <ele>2116.23</ele>
        <time>2016-03-18T09:57:13Z</time>
      </trkpt>
      <trkpt lat="42.86216" lon="-0.13877">
        <ele>2116.07</ele>
        <time>2016-03-18T09:57:49Z</time>
      </trkpt>
      <trkpt lat="42.86212" lon="-0.1388">
        <ele>2115.86</ele>
        <time>2016-03-18T09:58:14Z</time>
      </trkpt>
      <trkpt lat="42.86201" lon="-0.13888">
        <ele>2118.47</ele>
        <time>2016-03-18T09:58:33Z</time>
      </trkpt>
      <trkpt lat="42.862" lon="-0.13885">
        <ele>2120.68</ele>
        <time>2016-03-18T09:58:51Z</time>
      </trkpt>
      <trkpt lat="42.862" lon="-0.13879">
        <ele>2121.33</ele>
        <time>2016-03-18T09:59:16Z</time>
      </trkpt>
      <trkpt lat="42.86201" lon="-0.13876">
        <ele>2123.75</ele>
        <time>2016-03-18T09:59:43Z</time>
      </trkpt>
      <trkpt lat="42.86204" lon="-0.1387">
        <ele>2124.1</ele>
        <time>2016-03-18T10:00:08Z</time>
      </trkpt>
      <trkpt lat="42.86206" lon="-0.13867">
        <ele>2125.67</ele>
        <time>2016-03-18T10:00:27Z</time>
      </trkpt>
      <trkpt lat="42.86204" lon="-0.13869">
        <ele>2125.14</ele>
        <time>2016-03-18T10:00:45Z</time>
      </trkpt>
      <trkpt lat="42.862" lon="-0.13877">
        <ele>2127.55</ele>
        <time>2016-03-18T10:01:02Z</time>
      </trkpt>
      <trkpt lat="42.86199" lon="-0.13873">
        <ele>2128.28</ele>
        <time>2016-03-18T10:01:20Z</time>
      </trkpt>
      <trkpt lat="42.86201" lon="-0.13864">
        <ele>2130.56</ele>
        <time>2016-03-18T10:01:40Z</time>
      </trkpt>
      <trkpt lat="42.86197" lon="-0.13864">
        <ele>2131.53</ele>
        <time>2016-03-18T10:01:59Z</time>
      </trkpt>
      <trkpt lat="42.86198" lon="-0.13864">
        <ele>2131.1</ele>
        <time>2016-03-18T10:02:50Z</time>
      </trkpt>
      <trkpt lat="42.86192" lon="-0.13868">
        <ele>2131.29</ele>
        <time>2016-03-18T10:03:17Z</time>
      </trkpt>
      <trkpt lat="42.86187" lon="-0.13875">
        <ele>2134.3</ele>
        <time>2016-03-18T10:03:35Z</time>
      </trkpt>
      <trkpt lat="42.86189" lon="-0.13863">
        <ele>2135.58</ele>
        <time>2016-03-18T10:03:51Z</time>
      </trkpt>
      <trkpt lat="42.86188" lon="-0.13862">
        <ele>2136.85</ele>
        <time>2016-03-18T10:04:13Z</time>
      </trkpt>
      <trkpt lat="42.86187" lon="-0.13858">
        <ele>2138.02</ele>
        <time>2016-03-18T10:04:37Z</time>
      </trkpt>
      <trkpt lat="42.86187" lon="-0.13857">
        <ele>2137.93</ele>
        <time>2016-03-18T10:04:57Z</time>
      </trkpt>
      <trkpt lat="42.86184" lon="-0.13861">
        <ele>2138.18</ele>
        <time>2016-03-18T10:05:20Z</time>
      </trkpt>
      <trkpt lat="42.86179" lon="-0.13869">
        <ele>2140.19</ele>
        <time>2016-03-18T10:05:34Z</time>
      </trkpt>
      <trkpt lat="42.86179" lon="-0.1387">
        <ele>2141.51</ele>
        <time>2016-03-18T10:05:53Z</time>
      </trkpt>
      <trkpt lat="42.8618" lon="-0.13869">
        <ele>2141.93</ele>
        <time>2016-03-18T10:06:15Z</time>
      </trkpt>
      <trkpt lat="42.86179" lon="-0.13855">
        <ele>2143.55</ele>
        <time>2016-03-18T10:06:31Z</time>
      </trkpt>
      <trkpt lat="42.86178" lon="-0.13852">
        <ele>2145.08</ele>
        <time>2016-03-18T10:06:47Z</time>
      </trkpt>
      <trkpt lat="42.86173" lon="-0.13857">
        <ele>2146.06</ele>
        <time>2016-03-18T10:07:01Z</time>
      </trkpt>
      <trkpt lat="42.8617" lon="-0.13863">
        <ele>2147.64</ele>
        <time>2016-03-18T10:07:15Z</time>
      </trkpt>
      <trkpt lat="42.86167" lon="-0.13867">
        <ele>2149.56</ele>
        <time>2016-03-18T10:07:30Z</time>
      </trkpt>
      <trkpt lat="42.86164" lon="-0.13873">
        <ele>2150.11</ele>
        <time>2016-03-18T10:07:47Z</time>
      </trkpt>
      <trkpt lat="42.86164" lon="-0.13876">
        <ele>2152.47</ele>
        <time>2016-03-18T10:08:02Z</time>
      </trkpt>
      <trkpt lat="42.86164" lon="-0.13875">
        <ele>2152.8</ele>
        <time>2016-03-18T10:08:40Z</time>
      </trkpt>
      <trkpt lat="42.86162" lon="-0.13874">
        <ele>2152.49</ele>
        <time>2016-03-18T10:08:50Z</time>
      </trkpt>
      <trkpt lat="42.8616" lon="-0.13878">
        <ele>2154.13</ele>
        <time>2016-03-18T10:09:01Z</time>
      </trkpt>
      <trkpt lat="42.86161" lon="-0.13879">
        <ele>2155.02</ele>
        <time>2016-03-18T10:09:25Z</time>
      </trkpt>
      <trkpt lat="42.8616" lon="-0.13879">
        <ele>2155.03</ele>
        <time>2016-03-18T10:10:04Z</time>
      </trkpt>
      <trkpt lat="42.8616" lon="-0.13879">
        <ele>2154.43</ele>
        <time>2016-03-18T10:10:42Z</time>
      </trkpt>
      <trkpt lat="42.86157" lon="-0.13876">
        <ele>2155.54</ele>
        <time>2016-03-18T10:11:10Z</time>
      </trkpt>
      <trkpt lat="42.86157" lon="-0.13877">
        <ele>2156.15</ele>
        <time>2016-03-18T10:11:21Z</time>
      </trkpt>
      <trkpt lat="42.86157" lon="-0.13876">
        <ele>2156.38</ele>
        <time>2016-03-18T10:11:47Z</time>
      </trkpt>
      <trkpt lat="42.86156" lon="-0.13878">
        <ele>2155.5</ele>
        <time>2016-03-18T10:12:17Z</time>
      </trkpt>
      <trkpt lat="42.86156" lon="-0.13877">
        <ele>2155.46</ele>
        <time>2016-03-18T10:13:01Z</time>
      </trkpt>
      <trkpt lat="42.86157" lon="-0.13877">
        <ele>2155.39</ele>
        <time>2016-03-18T10:13:32Z</time>
      </trkpt>
      <trkpt lat="42.86156" lon="-0.13879">
        <ele>2154.54</ele>
        <time>2016-03-18T10:14:13Z</time>
      </trkpt>
      <trkpt lat="42.86155" lon="-0.1388">
        <ele>2155.22</ele>
        <time>2016-03-18T10:14:53Z</time>
      </trkpt>
      <trkpt lat="42.86155" lon="-0.13878">
        <ele>2155.18</ele>
        <time>2016-03-18T10:14:54Z</time>
      </trkpt>
      <trkpt lat="42.86158" lon="-0.13858">
        <ele>2156.78</ele>
        <time>2016-03-18T10:15:12Z</time>
      </trkpt>
      <trkpt lat="42.86157" lon="-0.13838">
        <ele>2159.04</ele>
        <time>2016-03-18T10:15:31Z</time>
      </trkpt>
      <trkpt lat="42.86153" lon="-0.13827">
        <ele>2162.16</ele>
        <time>2016-03-18T10:15:47Z</time>
      </trkpt>
      <trkpt lat="42.86155" lon="-0.13827">
        <ele>2163.81</ele>
        <time>2016-03-18T10:15:58Z</time>
      </trkpt>
      <trkpt lat="42.86158" lon="-0.13822">
        <ele>2165.63</ele>
        <time>2016-03-18T10:16:19Z</time>
      </trkpt>
      <trkpt lat="42.86152" lon="-0.13815">
        <ele>2167.31</ele>
        <time>2016-03-18T10:16:33Z</time>
      </trkpt>
      <trkpt lat="42.86154" lon="-0.13813">
        <ele>2169.2</ele>
        <time>2016-03-18T10:16:50Z</time>
      </trkpt>
      <trkpt lat="42.86158" lon="-0.13813">
        <ele>2170.3</ele>
        <time>2016-03-18T10:17:06Z</time>
      </trkpt>
      <trkpt lat="42.86155" lon="-0.13809">
        <ele>2171.47</ele>
        <time>2016-03-18T10:17:19Z</time>
      </trkpt>
      <trkpt lat="42.86153" lon="-0.13804">
        <ele>2173.43</ele>
        <time>2016-03-18T10:17:37Z</time>
      </trkpt>
      <trkpt lat="42.86158" lon="-0.13804">
        <ele>2175.46</ele>
        <time>2016-03-18T10:17:55Z</time>
      </trkpt>
      <trkpt lat="42.86162" lon="-0.13803">
        <ele>2176.22</ele>
        <time>2016-03-18T10:18:16Z</time>
      </trkpt>
      <trkpt lat="42.86164" lon="-0.13802">
        <ele>2178</ele>
        <time>2016-03-18T10:18:30Z</time>
      </trkpt>
      <trkpt lat="42.86163" lon="-0.13801">
        <ele>2178.5</ele>
        <time>2016-03-18T10:19:09Z</time>
      </trkpt>
      <trkpt lat="42.86156" lon="-0.13796">
        <ele>2179.61</ele>
        <time>2016-03-18T10:19:25Z</time>
      </trkpt>
      <trkpt lat="42.86157" lon="-0.13796">
        <ele>2180.57</ele>
        <time>2016-03-18T10:19:40Z</time>
      </trkpt>
      <trkpt lat="42.86164" lon="-0.13795">
        <ele>2181.27</ele>
        <time>2016-03-18T10:19:56Z</time>
      </trkpt>
      <trkpt lat="42.86166" lon="-0.13796">
        <ele>2182.06</ele>
        <time>2016-03-18T10:20:12Z</time>
      </trkpt>
      <trkpt lat="42.86172" lon="-0.13797">
        <ele>2183.57</ele>
        <time>2016-03-18T10:20:29Z</time>
      </trkpt>
      <trkpt lat="42.86167" lon="-0.13789">
        <ele>2185.26</ele>
        <time>2016-03-18T10:20:44Z</time>
      </trkpt>
      <trkpt lat="42.86171" lon="-0.13789">
        <ele>2186.5</ele>
        <time>2016-03-18T10:21:01Z</time>
      </trkpt>
      <trkpt lat="42.86177" lon="-0.13791">
        <ele>2187.58</ele>
        <time>2016-03-18T10:21:15Z</time>
      </trkpt>
      <trkpt lat="42.86176" lon="-0.13793">
        <ele>2188.45</ele>
        <time>2016-03-18T10:21:43Z</time>
      </trkpt>
      <trkpt lat="42.86176" lon="-0.13793">
        <ele>2188.68</ele>
        <time>2016-03-18T10:22:11Z</time>
      </trkpt>
      <trkpt lat="42.86178" lon="-0.13793">
        <ele>2189.41</ele>
        <time>2016-03-18T10:22:33Z</time>
      </trkpt>
      <trkpt lat="42.8618" lon="-0.13794">
        <ele>2190.68</ele>
        <time>2016-03-18T10:22:54Z</time>
      </trkpt>
      <trkpt lat="42.86179" lon="-0.13791">
        <ele>2191</ele>
        <time>2016-03-18T10:23:07Z</time>
      </trkpt>
      <trkpt lat="42.86179" lon="-0.1379">
        <ele>2191.31</ele>
        <time>2016-03-18T10:23:27Z</time>
      </trkpt>
      <trkpt lat="42.8618" lon="-0.1379">
        <ele>2190.86</ele>
        <time>2016-03-18T10:23:47Z</time>
      </trkpt>
      <trkpt lat="42.8618" lon="-0.1379">
        <ele>2190.37</ele>
        <time>2016-03-18T10:24:10Z</time>
      </trkpt>
      <trkpt lat="42.86182" lon="-0.1379">
        <ele>2191.22</ele>
        <time>2016-03-18T10:24:23Z</time>
      </trkpt>
      <trkpt lat="42.86185" lon="-0.1379">
        <ele>2193.07</ele>
        <time>2016-03-18T10:24:36Z</time>
      </trkpt>
      <trkpt lat="42.86185" lon="-0.13788">
        <ele>2194.5</ele>
        <time>2016-03-18T10:24:49Z</time>
      </trkpt>
      <trkpt lat="42.86186" lon="-0.13786">
        <ele>2196.08</ele>
        <time>2016-03-18T10:25:02Z</time>
      </trkpt>
      <trkpt lat="42.86187" lon="-0.13785">
        <ele>2197.78</ele>
        <time>2016-03-18T10:25:22Z</time>
      </trkpt>
      <trkpt lat="42.86188" lon="-0.13785">
        <ele>2198.21</ele>
        <time>2016-03-18T10:25:41Z</time>
      </trkpt>
      <trkpt lat="42.86191" lon="-0.13786">
        <ele>2201.01</ele>
        <time>2016-03-18T10:25:59Z</time>
      </trkpt>
      <trkpt lat="42.86192" lon="-0.13784">
        <ele>2202.45</ele>
        <time>2016-03-18T10:26:18Z</time>
      </trkpt>
      <trkpt lat="42.86192" lon="-0.1378">
        <ele>2203.77</ele>
        <time>2016-03-18T10:26:41Z</time>
      </trkpt>
      <trkpt lat="42.86193" lon="-0.13778">
        <ele>2205.35</ele>
        <time>2016-03-18T10:26:58Z</time>
      </trkpt>
      <trkpt lat="42.86193" lon="-0.13776">
        <ele>2206.95</ele>
        <time>2016-03-18T10:27:19Z</time>
      </trkpt>
      <trkpt lat="42.86193" lon="-0.13776">
        <ele>2207.23</ele>
        <time>2016-03-18T10:27:49Z</time>
      </trkpt>
      <trkpt lat="42.86192" lon="-0.13775">
        <ele>2207.7</ele>
        <time>2016-03-18T10:28:13Z</time>
      </trkpt>
      <trkpt lat="42.86193" lon="-0.13775">
        <ele>2207.85</ele>
        <time>2016-03-18T10:28:35Z</time>
      </trkpt>
      <trkpt lat="42.86193" lon="-0.13776">
        <ele>2207.99</ele>
        <time>2016-03-18T10:28:56Z</time>
      </trkpt>
      <trkpt lat="42.86195" lon="-0.13774">
        <ele>2208.38</ele>
        <time>2016-03-18T10:29:17Z</time>
      </trkpt>
      <trkpt lat="42.86193" lon="-0.13777">
        <ele>2208.92</ele>
        <time>2016-03-18T10:29:47Z</time>
      </trkpt>
      <trkpt lat="42.86193" lon="-0.13778">
        <ele>2209.33</ele>
        <time>2016-03-18T10:30:11Z</time>
      </trkpt>
      <trkpt lat="42.86193" lon="-0.13777">
        <ele>2208.46</ele>
        <time>2016-03-18T10:30:37Z</time>
      </trkpt>
      <trkpt lat="42.86193" lon="-0.13778">
        <ele>2209.53</ele>
        <time>2016-03-18T10:31:01Z</time>
      </trkpt>
      <trkpt lat="42.86193" lon="-0.13777">
        <ele>2210.39</ele>
        <time>2016-03-18T10:31:22Z</time>
      </trkpt>
      <trkpt lat="42.86195" lon="-0.13776">
        <ele>2210.97</ele>
        <time>2016-03-18T10:31:42Z</time>
      </trkpt>
      <trkpt lat="42.86196" lon="-0.13773">
        <ele>2212.19</ele>
        <time>2016-03-18T10:32:08Z</time>
      </trkpt>
      <trkpt lat="42.86197" lon="-0.13772">
        <ele>2212.93</ele>
        <time>2016-03-18T10:32:28Z</time>
      </trkpt>
      <trkpt lat="42.86199" lon="-0.13772">
        <ele>2214.35</ele>
        <time>2016-03-18T10:32:49Z</time>
      </trkpt>
      <trkpt lat="42.86198" lon="-0.13772">
        <ele>2214.23</ele>
        <time>2016-03-18T10:33:15Z</time>
      </trkpt>
      <trkpt lat="42.86197" lon="-0.13772">
        <ele>2213.38</ele>
        <time>2016-03-18T10:33:35Z</time>
      </trkpt>
      <trkpt lat="42.86198" lon="-0.13772">
        <ele>2213.35</ele>
        <time>2016-03-18T10:34:12Z</time>
      </trkpt>
      <trkpt lat="42.86197" lon="-0.13778">
        <ele>2213.14</ele>
        <time>2016-03-18T10:34:45Z</time>
      </trkpt>
      <trkpt lat="42.86194" lon="-0.13773">
        <ele>2212.52</ele>
        <time>2016-03-18T10:34:58Z</time>
      </trkpt>
      <trkpt lat="42.86195" lon="-0.1377">
        <ele>2212.73</ele>
        <time>2016-03-18T10:35:23Z</time>
      </trkpt>
      <trkpt lat="42.86196" lon="-0.13773">
        <ele>2213.48</ele>
        <time>2016-03-18T10:35:42Z</time>
      </trkpt>
      <trkpt lat="42.86197" lon="-0.13772">
        <ele>2212.71</ele>
        <time>2016-03-18T10:36:07Z</time>
      </trkpt>
      <trkpt lat="42.86195" lon="-0.13774">
        <ele>2210.73</ele>
        <time>2016-03-18T10:36:27Z</time>
      </trkpt>
      <trkpt lat="42.86192" lon="-0.1378">
        <ele>2208.49</ele>
        <time>2016-03-18T10:36:51Z</time>
      </trkpt>
      <trkpt lat="42.86192" lon="-0.13779">
        <ele>2208.14</ele>
        <time>2016-03-18T10:37:10Z</time>
      </trkpt>
      <trkpt lat="42.86192" lon="-0.13777">
        <ele>2207.14</ele>
        <time>2016-03-18T10:37:33Z</time>
      </trkpt>
      <trkpt lat="42.86191" lon="-0.13781">
        <ele>2206</ele>
        <time>2016-03-18T10:37:53Z</time>
      </trkpt>
      <trkpt lat="42.86191" lon="-0.13785">
        <ele>2202.99</ele>
        <time>2016-03-18T10:38:09Z</time>
      </trkpt>
      <trkpt lat="42.86191" lon="-0.13786">
        <ele>2202.17</ele>
        <time>2016-03-18T10:38:26Z</time>
      </trkpt>
      <trkpt lat="42.86189" lon="-0.13786">
        <ele>2201.03</ele>
        <time>2016-03-18T10:38:50Z</time>
      </trkpt>
      <trkpt lat="42.86188" lon="-0.13784">
        <ele>2200.54</ele>
        <time>2016-03-18T10:39:23Z</time>
      </trkpt>
      <trkpt lat="42.86182" lon="-0.13789">
        <ele>2197.35</ele>
        <time>2016-03-18T10:39:39Z</time>
      </trkpt>
      <trkpt lat="42.8618" lon="-0.13794">
        <ele>2194.34</ele>
        <time>2016-03-18T10:39:50Z</time>
      </trkpt>
      <trkpt lat="42.86175" lon="-0.13794">
        <ele>2191.2</ele>
        <time>2016-03-18T10:40:05Z</time>
      </trkpt>
      <trkpt lat="42.86169" lon="-0.13795">
        <ele>2188.56</ele>
        <time>2016-03-18T10:40:22Z</time>
      </trkpt>
      <trkpt lat="42.86165" lon="-0.13792">
        <ele>2185.61</ele>
        <time>2016-03-18T10:40:39Z</time>
      </trkpt>
      <trkpt lat="42.86165" lon="-0.13788">
        <ele>2185.54</ele>
        <time>2016-03-18T10:41:01Z</time>
      </trkpt>
      <trkpt lat="42.86165" lon="-0.13787">
        <ele>2185.2</ele>
        <time>2016-03-18T10:41:21Z</time>
      </trkpt>
      <trkpt lat="42.86166" lon="-0.1379">
        <ele>2185.17</ele>
        <time>2016-03-18T10:41:54Z</time>
      </trkpt>
      <trkpt lat="42.86169" lon="-0.13787">
        <ele>2185.04</ele>
        <time>2016-03-18T10:42:27Z</time>
      </trkpt>
      <trkpt lat="42.86168" lon="-0.13789">
        <ele>2184.86</ele>
        <time>2016-03-18T10:43:01Z</time>
      </trkpt>
      <trkpt lat="42.86169" lon="-0.13788">
        <ele>2183.93</ele>
        <time>2016-03-18T10:43:36Z</time>
      </trkpt>
      <trkpt lat="42.86168" lon="-0.13787">
        <ele>2185.2</ele>
        <time>2016-03-18T10:44:11Z</time>
      </trkpt>
      <trkpt lat="42.86169" lon="-0.13788">
        <ele>2184.81</ele>
        <time>2016-03-18T10:44:35Z</time>
      </trkpt>
      <trkpt lat="42.86171" lon="-0.13786">
        <ele>2184.5</ele>
        <time>2016-03-18T10:44:39Z</time>
      </trkpt>
      <trkpt lat="42.86169" lon="-0.13786">
        <ele>2183.37</ele>
        <time>2016-03-18T10:45:06Z</time>
      </trkpt>
      <trkpt lat="42.86168" lon="-0.13787">
        <ele>2183.5</ele>
        <time>2016-03-18T10:45:31Z</time>
      </trkpt>
      <trkpt lat="42.86169" lon="-0.13786">
        <ele>2183.4</ele>
        <time>2016-03-18T10:46:02Z</time>
      </trkpt>
      <trkpt lat="42.86168" lon="-0.13785">
        <ele>2183.58</ele>
        <time>2016-03-18T10:46:34Z</time>
      </trkpt>
      <trkpt lat="42.86169" lon="-0.13784">
        <ele>2183.39</ele>
        <time>2016-03-18T10:47:05Z</time>
      </trkpt>
      <trkpt lat="42.8617" lon="-0.13786">
        <ele>2183.67</ele>
        <time>2016-03-18T10:47:37Z</time>
      </trkpt>
      <trkpt lat="42.86171" lon="-0.13786">
        <ele>2184.1</ele>
        <time>2016-03-18T10:48:08Z</time>
      </trkpt>
      <trkpt lat="42.86168" lon="-0.13788">
        <ele>2183.88</ele>
        <time>2016-03-18T10:48:42Z</time>
      </trkpt>
      <trkpt lat="42.86167" lon="-0.13785">
        <ele>2183.54</ele>
        <time>2016-03-18T10:49:13Z</time>
      </trkpt>
      <trkpt lat="42.86166" lon="-0.13787">
        <ele>2183.74</ele>
        <time>2016-03-18T10:49:42Z</time>
      </trkpt>
      <trkpt lat="42.86165" lon="-0.13787">
        <ele>2183.53</ele>
        <time>2016-03-18T10:50:28Z</time>
      </trkpt>
      <trkpt lat="42.86166" lon="-0.13786">
        <ele>2183.33</ele>
        <time>2016-03-18T10:51:19Z</time>
      </trkpt>
      <trkpt lat="42.86167" lon="-0.13785">
        <ele>2183.39</ele>
        <time>2016-03-18T10:51:53Z</time>
      </trkpt>
      <trkpt lat="42.86168" lon="-0.13785">
        <ele>2183.13</ele>
        <time>2016-03-18T10:52:29Z</time>
      </trkpt>
      <trkpt lat="42.86167" lon="-0.13786">
        <ele>2183.25</ele>
        <time>2016-03-18T10:53:04Z</time>
      </trkpt>
      <trkpt lat="42.86166" lon="-0.13788">
        <ele>2183.39</ele>
        <time>2016-03-18T10:53:31Z</time>
      </trkpt>
      <trkpt lat="42.86167" lon="-0.13789">
        <ele>2183.59</ele>
        <time>2016-03-18T10:54:05Z</time>
      </trkpt>
      <trkpt lat="42.86168" lon="-0.13788">
        <ele>2183.31</ele>
        <time>2016-03-18T10:54:51Z</time>
      </trkpt>
      <trkpt lat="42.86168" lon="-0.13788">
        <ele>2183.16</ele>
        <time>2016-03-18T10:55:41Z</time>
      </trkpt>
      <trkpt lat="42.86168" lon="-0.13787">
        <ele>2183.38</ele>
        <time>2016-03-18T10:56:20Z</time>
      </trkpt>
      <trkpt lat="42.86169" lon="-0.13788">
        <ele>2183.07</ele>
        <time>2016-03-18T10:56:57Z</time>
      </trkpt>
      <trkpt lat="42.86168" lon="-0.1379">
        <ele>2183</ele>
        <time>2016-03-18T10:57:34Z</time>
      </trkpt>
      <trkpt lat="42.86166" lon="-0.13793">
        <ele>2182.57</ele>
        <time>2016-03-18T10:58:08Z</time>
      </trkpt>
      <trkpt lat="42.86166" lon="-0.13791">
        <ele>2183.1</ele>
        <time>2016-03-18T10:58:37Z</time>
      </trkpt>
      <trkpt lat="42.86165" lon="-0.13793">
        <ele>2182.83</ele>
        <time>2016-03-18T10:59:17Z</time>
      </trkpt>
      <trkpt lat="42.86164" lon="-0.13793">
        <ele>2183.22</ele>
        <time>2016-03-18T10:59:49Z</time>
      </trkpt>
      <trkpt lat="42.86163" lon="-0.13792">
        <ele>2183.7</ele>
        <time>2016-03-18T11:00:20Z</time>
      </trkpt>
      <trkpt lat="42.86165" lon="-0.13791">
        <ele>2183</ele>
        <time>2016-03-18T11:00:54Z</time>
      </trkpt>
      <trkpt lat="42.86166" lon="-0.13789">
        <ele>2183.07</ele>
        <time>2016-03-18T11:01:52Z</time>
      </trkpt>
      <trkpt lat="42.86166" lon="-0.1379">
        <ele>2182.88</ele>
        <time>2016-03-18T11:02:25Z</time>
      </trkpt>
      <trkpt lat="42.86165" lon="-0.1379">
        <ele>2183.49</ele>
        <time>2016-03-18T11:02:57Z</time>
      </trkpt>
      <trkpt lat="42.86166" lon="-0.1379">
        <ele>2182.83</ele>
        <time>2016-03-18T11:03:32Z</time>
      </trkpt>
      <trkpt lat="42.86166" lon="-0.13792">
        <ele>2183.35</ele>
        <time>2016-03-18T11:04:07Z</time>
      </trkpt>
      <trkpt lat="42.86165" lon="-0.1379">
        <ele>2182.91</ele>
        <time>2016-03-18T11:05:20Z</time>
      </trkpt>
      <trkpt lat="42.86166" lon="-0.13789">
        <ele>2183.93</ele>
        <time>2016-03-18T11:06:14Z</time>
      </trkpt>
      <trkpt lat="42.86166" lon="-0.13788">
        <ele>2183.36</ele>
        <time>2016-03-18T11:07:01Z</time>
      </trkpt>
      <trkpt lat="42.86165" lon="-0.13788">
        <ele>2183.58</ele>
        <time>2016-03-18T11:07:50Z</time>
      </trkpt>
      <trkpt lat="42.86165" lon="-0.13787">
        <ele>2183.24</ele>
        <time>2016-03-18T11:08:31Z</time>
      </trkpt>
      <trkpt lat="42.86166" lon="-0.13787">
        <ele>2183.1</ele>
        <time>2016-03-18T11:09:10Z</time>
      </trkpt>
      <trkpt lat="42.86166" lon="-0.1379">
        <ele>2183.07</ele>
        <time>2016-03-18T11:09:51Z</time>
      </trkpt>
      <trkpt lat="42.86166" lon="-0.13789">
        <ele>2183.25</ele>
        <time>2016-03-18T11:10:25Z</time>
      </trkpt>
      <trkpt lat="42.86169" lon="-0.13789">
        <ele>2182.94</ele>
        <time>2016-03-18T11:11:05Z</time>
      </trkpt>
      <trkpt lat="42.86167" lon="-0.1379">
        <ele>2183.61</ele>
        <time>2016-03-18T11:12:18Z</time>
      </trkpt>
      <trkpt lat="42.86166" lon="-0.1379">
        <ele>2183.92</ele>
        <time>2016-03-18T11:12:54Z</time>
      </trkpt>
      <trkpt lat="42.86167" lon="-0.13787">
        <ele>2183.59</ele>
        <time>2016-03-18T11:14:02Z</time>
      </trkpt>
      <trkpt lat="42.86167" lon="-0.13789">
        <ele>2183.97</ele>
        <time>2016-03-18T11:14:59Z</time>
      </trkpt>
      <trkpt lat="42.86167" lon="-0.1379">
        <ele>2183.46</ele>
        <time>2016-03-18T11:15:42Z</time>
      </trkpt>
      <trkpt lat="42.86167" lon="-0.13789">
        <ele>2183.43</ele>
        <time>2016-03-18T11:16:16Z</time>
      </trkpt>
      <trkpt lat="42.86168" lon="-0.13788">
        <ele>2183.83</ele>
        <time>2016-03-18T11:17:18Z</time>
      </trkpt>
      <trkpt lat="42.86166" lon="-0.1379">
        <ele>2183.36</ele>
        <time>2016-03-18T11:17:55Z</time>
      </trkpt>
      <trkpt lat="42.86165" lon="-0.1379">
        <ele>2183.96</ele>
        <time>2016-03-18T11:18:24Z</time>
      </trkpt>
      <trkpt lat="42.86167" lon="-0.13789">
        <ele>2182.88</ele>
        <time>2016-03-18T11:19:00Z</time>
      </trkpt>
      <trkpt lat="42.86165" lon="-0.13791">
        <ele>2183.16</ele>
        <time>2016-03-18T11:19:27Z</time>
      </trkpt>
      <trkpt lat="42.86163" lon="-0.13792">
        <ele>2183.94</ele>
        <time>2016-03-18T11:19:55Z</time>
      </trkpt>
      <trkpt lat="42.86164" lon="-0.1379">
        <ele>2183.98</ele>
        <time>2016-03-18T11:20:19Z</time>
      </trkpt>
      <trkpt lat="42.86168" lon="-0.13789">
        <ele>2184.6</ele>
        <time>2016-03-18T11:20:46Z</time>
      </trkpt>
      <trkpt lat="42.86171" lon="-0.13789">
        <ele>2184.16</ele>
        <time>2016-03-18T11:21:20Z</time>
      </trkpt>
      <trkpt lat="42.86169" lon="-0.13789">
        <ele>2183.95</ele>
        <time>2016-03-18T11:21:52Z</time>
      </trkpt>
      <trkpt lat="42.86168" lon="-0.1379">
        <ele>2183.87</ele>
        <time>2016-03-18T11:22:19Z</time>
      </trkpt>
      <trkpt lat="42.86171" lon="-0.13788">
        <ele>2183.88</ele>
        <time>2016-03-18T11:22:46Z</time>
      </trkpt>
      <trkpt lat="42.86169" lon="-0.13787">
        <ele>2184.11</ele>
        <time>2016-03-18T11:23:13Z</time>
      </trkpt>
      <trkpt lat="42.86168" lon="-0.1379">
        <ele>2184.58</ele>
        <time>2016-03-18T11:23:34Z</time>
      </trkpt>
      <trkpt lat="42.86167" lon="-0.13789">
        <ele>2183.7</ele>
        <time>2016-03-18T11:24:00Z</time>
      </trkpt>
      <trkpt lat="42.86167" lon="-0.1379">
        <ele>2184.11</ele>
        <time>2016-03-18T11:24:28Z</time>
      </trkpt>
      <trkpt lat="42.86173" lon="-0.13789">
        <ele>2183.86</ele>
        <time>2016-03-18T11:24:58Z</time>
      </trkpt>
      <trkpt lat="42.8617" lon="-0.13789">
        <ele>2183.91</ele>
        <time>2016-03-18T11:25:24Z</time>
      </trkpt>
      <trkpt lat="42.86168" lon="-0.1379">
        <ele>2184.1</ele>
        <time>2016-03-18T11:25:51Z</time>
      </trkpt>
      <trkpt lat="42.86167" lon="-0.13793">
        <ele>2183.45</ele>
        <time>2016-03-18T11:26:21Z</time>
      </trkpt>
      <trkpt lat="42.86168" lon="-0.13791">
        <ele>2183.55</ele>
        <time>2016-03-18T11:26:50Z</time>
      </trkpt>
      <trkpt lat="42.86164" lon="-0.13794">
        <ele>2183.31</ele>
        <time>2016-03-18T11:26:59Z</time>
      </trkpt>
      <trkpt lat="42.86164" lon="-0.13798">
        <ele>2180.01</ele>
        <time>2016-03-18T11:27:08Z</time>
      </trkpt>
      <trkpt lat="42.86159" lon="-0.13805">
        <ele>2176.73</ele>
        <time>2016-03-18T11:27:15Z</time>
      </trkpt>
      <trkpt lat="42.86157" lon="-0.13807">
        <ele>2173.73</ele>
        <time>2016-03-18T11:27:22Z</time>
      </trkpt>
      <trkpt lat="42.86158" lon="-0.13809">
        <ele>2172.7</ele>
        <time>2016-03-18T11:27:25Z</time>
      </trkpt>
      <trkpt lat="42.86161" lon="-0.13815">
        <ele>2170.95</ele>
        <time>2016-03-18T11:27:30Z</time>
      </trkpt>
      <trkpt lat="42.86159" lon="-0.13826">
        <ele>2167.29</ele>
        <time>2016-03-18T11:27:36Z</time>
      </trkpt>
      <trkpt lat="42.86164" lon="-0.13832">
        <ele>2164.2</ele>
        <time>2016-03-18T11:27:40Z</time>
      </trkpt>
      <trkpt lat="42.86164" lon="-0.1384">
        <ele>2161.16</ele>
        <time>2016-03-18T11:27:44Z</time>
      </trkpt>
      <trkpt lat="42.86169" lon="-0.13846">
        <ele>2156.66</ele>
        <time>2016-03-18T11:27:50Z</time>
      </trkpt>
      <trkpt lat="42.8617" lon="-0.13846">
        <ele>2155.92</ele>
        <time>2016-03-18T11:27:51Z</time>
      </trkpt>
      <trkpt lat="42.86174" lon="-0.1386">
        <ele>2151.92</ele>
        <time>2016-03-18T11:27:57Z</time>
      </trkpt>
      <trkpt lat="42.86175" lon="-0.13866">
        <ele>2148.81</ele>
        <time>2016-03-18T11:28:00Z</time>
      </trkpt>
      <trkpt lat="42.86185" lon="-0.13869">
        <ele>2144.3</ele>
        <time>2016-03-18T11:28:05Z</time>
      </trkpt>
      <trkpt lat="42.86185" lon="-0.13872">
        <ele>2143.22</ele>
        <time>2016-03-18T11:28:06Z</time>
      </trkpt>
      <trkpt lat="42.86186" lon="-0.13879">
        <ele>2139.82</ele>
        <time>2016-03-18T11:28:09Z</time>
      </trkpt>
      <trkpt lat="42.86194" lon="-0.13887">
        <ele>2135.73</ele>
        <time>2016-03-18T11:28:14Z</time>
      </trkpt>
      <trkpt lat="42.862" lon="-0.13887">
        <ele>2133.27</ele>
        <time>2016-03-18T11:28:16Z</time>
      </trkpt>
      <trkpt lat="42.86204" lon="-0.13893">
        <ele>2128.7</ele>
        <time>2016-03-18T11:28:18Z</time>
      </trkpt>
      <trkpt lat="42.86209" lon="-0.13897">
        <ele>2125.02</ele>
        <time>2016-03-18T11:28:20Z</time>
      </trkpt>
      <trkpt lat="42.86212" lon="-0.13896">
        <ele>2121.41</ele>
        <time>2016-03-18T11:28:22Z</time>
      </trkpt>
      <trkpt lat="42.86216" lon="-0.13898">
        <ele>2117.59</ele>
        <time>2016-03-18T11:28:24Z</time>
      </trkpt>
      <trkpt lat="42.86218" lon="-0.139">
        <ele>2113.85</ele>
        <time>2016-03-18T11:28:26Z</time>
      </trkpt>
      <trkpt lat="42.86219" lon="-0.13904">
        <ele>2112.09</ele>
        <time>2016-03-18T11:28:27Z</time>
      </trkpt>
      <trkpt lat="42.86219" lon="-0.13912">
        <ele>2106.66</ele>
        <time>2016-03-18T11:28:30Z</time>
      </trkpt>
      <trkpt lat="42.86224" lon="-0.13918">
        <ele>2101.4</ele>
        <time>2016-03-18T11:28:34Z</time>
      </trkpt>
      <trkpt lat="42.8623" lon="-0.13918">
        <ele>2098.23</ele>
        <time>2016-03-18T11:28:37Z</time>
      </trkpt>
      <trkpt lat="42.86233" lon="-0.13929">
        <ele>2092.51</ele>
        <time>2016-03-18T11:28:41Z</time>
      </trkpt>
      <trkpt lat="42.86235" lon="-0.13931">
        <ele>2088.34</ele>
        <time>2016-03-18T11:28:44Z</time>
      </trkpt>
      <trkpt lat="42.86236" lon="-0.13931">
        <ele>2084.88</ele>
        <time>2016-03-18T11:28:47Z</time>
      </trkpt>
      <trkpt lat="42.86236" lon="-0.13932">
        <ele>2082.01</ele>
        <time>2016-03-18T11:28:52Z</time>
      </trkpt>
      <trkpt lat="42.86239" lon="-0.1394">
        <ele>2080.74</ele>
        <time>2016-03-18T11:29:17Z</time>
      </trkpt>
      <trkpt lat="42.8624" lon="-0.13948">
        <ele>2080.6</ele>
        <time>2016-03-18T11:29:32Z</time>
      </trkpt>
      <trkpt lat="42.86242" lon="-0.13946">
        <ele>2081.6</ele>
        <time>2016-03-18T11:30:02Z</time>
      </trkpt>
      <trkpt lat="42.8624" lon="-0.13949">
        <ele>2081.26</ele>
        <time>2016-03-18T11:30:33Z</time>
      </trkpt>
      <trkpt lat="42.86237" lon="-0.13948">
        <ele>2081.78</ele>
        <time>2016-03-18T11:31:01Z</time>
      </trkpt>
      <trkpt lat="42.86238" lon="-0.13947">
        <ele>2081.74</ele>
        <time>2016-03-18T11:31:05Z</time>
      </trkpt>
      <trkpt lat="42.86253" lon="-0.13946">
        <ele>2078.41</ele>
        <time>2016-03-18T11:31:12Z</time>
      </trkpt>
      <trkpt lat="42.86262" lon="-0.13943">
        <ele>2074.25</ele>
        <time>2016-03-18T11:31:15Z</time>
      </trkpt>
      <trkpt lat="42.86268" lon="-0.13943">
        <ele>2070.68</ele>
        <time>2016-03-18T11:31:17Z</time>
      </trkpt>
      <trkpt lat="42.86273" lon="-0.13941">
        <ele>2066.64</ele>
        <time>2016-03-18T11:31:19Z</time>
      </trkpt>
      <trkpt lat="42.8628" lon="-0.13943">
        <ele>2062.36</ele>
        <time>2016-03-18T11:31:21Z</time>
      </trkpt>
      <trkpt lat="42.86282" lon="-0.13942">
        <ele>2059.95</ele>
        <time>2016-03-18T11:31:22Z</time>
      </trkpt>
      <trkpt lat="42.86289" lon="-0.13941">
        <ele>2055.37</ele>
        <time>2016-03-18T11:31:24Z</time>
      </trkpt>
      <trkpt lat="42.86297" lon="-0.13942">
        <ele>2048.49</ele>
        <time>2016-03-18T11:31:27Z</time>
      </trkpt>
      <trkpt lat="42.86298" lon="-0.13938">
        <ele>2043.88</ele>
        <time>2016-03-18T11:31:29Z</time>
      </trkpt>
      <trkpt lat="42.86299" lon="-0.13937">
        <ele>2039.48</ele>
        <time>2016-03-18T11:31:31Z</time>
      </trkpt>
      <trkpt lat="42.86298" lon="-0.13939">
        <ele>2036.05</ele>
        <time>2016-03-18T11:31:33Z</time>
      </trkpt>
      <trkpt lat="42.86298" lon="-0.1394">
        <ele>2032.74</ele>
        <time>2016-03-18T11:31:36Z</time>
      </trkpt>
      <trkpt lat="42.86301" lon="-0.13942">
        <ele>2029.59</ele>
        <time>2016-03-18T11:31:44Z</time>
      </trkpt>
      <trkpt lat="42.86305" lon="-0.1394">
        <ele>2029.57</ele>
        <time>2016-03-18T11:31:54Z</time>
      </trkpt>
      <trkpt lat="42.86327" lon="-0.13931">
        <ele>2025.7</ele>
        <time>2016-03-18T11:32:02Z</time>
      </trkpt>
      <trkpt lat="42.86339" lon="-0.13933">
        <ele>2021.23</ele>
        <time>2016-03-18T11:32:05Z</time>
      </trkpt>
      <trkpt lat="42.86346" lon="-0.13932">
        <ele>2017.63</ele>
        <time>2016-03-18T11:32:07Z</time>
      </trkpt>
      <trkpt lat="42.86355" lon="-0.13933">
        <ele>2013.34</ele>
        <time>2016-03-18T11:32:09Z</time>
      </trkpt>
      <trkpt lat="42.86363" lon="-0.13935">
        <ele>2008.17</ele>
        <time>2016-03-18T11:32:11Z</time>
      </trkpt>
      <trkpt lat="42.86371" lon="-0.13936">
        <ele>2003.04</ele>
        <time>2016-03-18T11:32:13Z</time>
      </trkpt>
      <trkpt lat="42.86374" lon="-0.13939">
        <ele>2000.36</ele>
        <time>2016-03-18T11:32:14Z</time>
      </trkpt>
      <trkpt lat="42.86382" lon="-0.13942">
        <ele>1995.34</ele>
        <time>2016-03-18T11:32:16Z</time>
      </trkpt>
      <trkpt lat="42.86395" lon="-0.13941">
        <ele>1987.59</ele>
        <time>2016-03-18T11:32:19Z</time>
      </trkpt>
      <trkpt lat="42.86402" lon="-0.13939">
        <ele>1982.42</ele>
        <time>2016-03-18T11:32:21Z</time>
      </trkpt>
      <trkpt lat="42.86408" lon="-0.13939">
        <ele>1977.41</ele>
        <time>2016-03-18T11:32:23Z</time>
      </trkpt>
      <trkpt lat="42.86415" lon="-0.13938">
        <ele>1972.48</ele>
        <time>2016-03-18T11:32:25Z</time>
      </trkpt>
      <trkpt lat="42.86422" lon="-0.13943">
        <ele>1967.58</ele>
        <time>2016-03-18T11:32:27Z</time>
      </trkpt>
      <trkpt lat="42.86431" lon="-0.13943">
        <ele>1963.15</ele>
        <time>2016-03-18T11:32:29Z</time>
      </trkpt>
      <trkpt lat="42.86442" lon="-0.13943">
        <ele>1959.01</ele>
        <time>2016-03-18T11:32:31Z</time>
      </trkpt>
      <trkpt lat="42.86453" lon="-0.13942">
        <ele>1952.4</ele>
        <time>2016-03-18T11:32:33Z</time>
      </trkpt>
      <trkpt lat="42.86459" lon="-0.13942">
        <ele>1952.4</ele>
        <time>2016-03-18T11:32:34Z</time>
      </trkpt>
      <trkpt lat="42.86466" lon="-0.13944">
        <ele>1947.93</ele>
        <time>2016-03-18T11:32:35Z</time>
      </trkpt>
      <trkpt lat="42.86476" lon="-0.13946">
        <ele>1943.31</ele>
        <time>2016-03-18T11:32:37Z</time>
      </trkpt>
      <trkpt lat="42.86479" lon="-0.13944">
        <ele>1938.84</ele>
        <time>2016-03-18T11:32:39Z</time>
      </trkpt>
      <trkpt lat="42.86481" lon="-0.13942">
        <ele>1934.69</ele>
        <time>2016-03-18T11:32:41Z</time>
      </trkpt>
      <trkpt lat="42.86482" lon="-0.13941">
        <ele>1930.81</ele>
        <time>2016-03-18T11:32:44Z</time>
      </trkpt>
      <trkpt lat="42.86484" lon="-0.1394">
        <ele>1930</ele>
        <time>2016-03-18T11:32:45Z</time>
      </trkpt>
      <trkpt lat="42.86486" lon="-0.13938">
        <ele>1927.82</ele>
        <time>2016-03-18T11:32:51Z</time>
      </trkpt>
      <trkpt lat="42.86488" lon="-0.13939">
        <ele>1927.71</ele>
        <time>2016-03-18T11:33:20Z</time>
      </trkpt>
      <trkpt lat="42.8649" lon="-0.1394">
        <ele>1927.81</ele>
        <time>2016-03-18T11:33:51Z</time>
      </trkpt>
      <trkpt lat="42.8649" lon="-0.1394">
        <ele>1927.77</ele>
        <time>2016-03-18T11:33:52Z</time>
      </trkpt>
      <trkpt lat="42.86486" lon="-0.13938">
        <ele>1927.83</ele>
        <time>2016-03-18T11:34:25Z</time>
      </trkpt>
      <trkpt lat="42.86487" lon="-0.13937">
        <ele>1928.2</ele>
        <time>2016-03-18T11:34:52Z</time>
      </trkpt>
      <trkpt lat="42.86484" lon="-0.13934">
        <ele>1928.5</ele>
        <time>2016-03-18T11:35:19Z</time>
      </trkpt>
      <trkpt lat="42.86487" lon="-0.13938">
        <ele>1928.4</ele>
        <time>2016-03-18T11:35:32Z</time>
      </trkpt>
      <trkpt lat="42.86495" lon="-0.13939">
        <ele>1928.64</ele>
        <time>2016-03-18T11:36:03Z</time>
      </trkpt>
      <trkpt lat="42.86492" lon="-0.13935">
        <ele>1928.59</ele>
        <time>2016-03-18T11:36:22Z</time>
      </trkpt>
      <trkpt lat="42.86508" lon="-0.13929">
        <ele>1927.19</ele>
        <time>2016-03-18T11:36:29Z</time>
      </trkpt>
      <trkpt lat="42.86539" lon="-0.1392">
        <ele>1924.56</ele>
        <time>2016-03-18T11:36:34Z</time>
      </trkpt>
      <trkpt lat="42.86555" lon="-0.13917">
        <ele>1921.24</ele>
        <time>2016-03-18T11:36:36Z</time>
      </trkpt>
      <trkpt lat="42.86563" lon="-0.13916">
        <ele>1919.94</ele>
        <time>2016-03-18T11:36:37Z</time>
      </trkpt>
      <trkpt lat="42.86581" lon="-0.13914">
        <ele>1916.23</ele>
        <time>2016-03-18T11:36:40Z</time>
      </trkpt>
      <trkpt lat="42.86595" lon="-0.13906">
        <ele>1911.35</ele>
        <time>2016-03-18T11:36:44Z</time>
      </trkpt>
      <trkpt lat="42.8661" lon="-0.13905">
        <ele>1907.67</ele>
        <time>2016-03-18T11:36:48Z</time>
      </trkpt>
      <trkpt lat="42.86631" lon="-0.13906">
        <ele>1904.17</ele>
        <time>2016-03-18T11:36:53Z</time>
      </trkpt>
      <trkpt lat="42.86642" lon="-0.13906">
        <ele>1900.63</ele>
        <time>2016-03-18T11:36:57Z</time>
      </trkpt>
      <trkpt lat="42.86656" lon="-0.13907">
        <ele>1897.02</ele>
        <time>2016-03-18T11:37:02Z</time>
      </trkpt>
      <trkpt lat="42.86674" lon="-0.13899">
        <ele>1893.92</ele>
        <time>2016-03-18T11:37:07Z</time>
      </trkpt>
      <trkpt lat="42.86691" lon="-0.13894">
        <ele>1890.78</ele>
        <time>2016-03-18T11:37:11Z</time>
      </trkpt>
      <trkpt lat="42.86695" lon="-0.13892">
        <ele>1889.96</ele>
        <time>2016-03-18T11:37:12Z</time>
      </trkpt>
      <trkpt lat="42.86715" lon="-0.13879">
        <ele>1886.01</ele>
        <time>2016-03-18T11:37:17Z</time>
      </trkpt>
      <trkpt lat="42.86733" lon="-0.13871">
        <ele>1882.89</ele>
        <time>2016-03-18T11:37:21Z</time>
      </trkpt>
      <trkpt lat="42.86743" lon="-0.13868">
        <ele>1879.22</ele>
        <time>2016-03-18T11:37:25Z</time>
      </trkpt>
      <trkpt lat="42.86759" lon="-0.13864">
        <ele>1875.77</ele>
        <time>2016-03-18T11:37:30Z</time>
      </trkpt>
      <trkpt lat="42.86777" lon="-0.13865">
        <ele>1872.26</ele>
        <time>2016-03-18T11:37:34Z</time>
      </trkpt>
      <trkpt lat="42.86784" lon="-0.13865">
        <ele>1869.17</ele>
        <time>2016-03-18T11:37:37Z</time>
      </trkpt>
      <trkpt lat="42.86787" lon="-0.13867">
        <ele>1866.05</ele>
        <time>2016-03-18T11:37:41Z</time>
      </trkpt>
      <trkpt lat="42.86791" lon="-0.13869">
        <ele>1863.02</ele>
        <time>2016-03-18T11:37:55Z</time>
      </trkpt>
      <trkpt lat="42.86798" lon="-0.13871">
        <ele>1862.98</ele>
        <time>2016-03-18T11:38:03Z</time>
      </trkpt>
      <trkpt lat="42.86832" lon="-0.13896">
        <ele>1859.74</ele>
        <time>2016-03-18T11:38:09Z</time>
      </trkpt>
      <trkpt lat="42.86848" lon="-0.13893">
        <ele>1852.71</ele>
        <time>2016-03-18T11:38:13Z</time>
      </trkpt>
      <trkpt lat="42.86848" lon="-0.13893">
        <ele>1848.8</ele>
        <time>2016-03-18T11:38:16Z</time>
      </trkpt>
      <trkpt lat="42.86848" lon="-0.13895">
        <ele>1845.64</ele>
        <time>2016-03-18T11:38:21Z</time>
      </trkpt>
      <trkpt lat="42.86857" lon="-0.13897">
        <ele>1844.49</ele>
        <time>2016-03-18T11:38:34Z</time>
      </trkpt>
      <trkpt lat="42.86871" lon="-0.13888">
        <ele>1843.62</ele>
        <time>2016-03-18T11:38:50Z</time>
      </trkpt>
      <trkpt lat="42.86891" lon="-0.13893">
        <ele>1840.04</ele>
        <time>2016-03-18T11:38:56Z</time>
      </trkpt>
      <trkpt lat="42.86895" lon="-0.13906">
        <ele>1836.72</ele>
        <time>2016-03-18T11:38:59Z</time>
      </trkpt>
      <trkpt lat="42.86901" lon="-0.13914">
        <ele>1833.45</ele>
        <time>2016-03-18T11:39:01Z</time>
      </trkpt>
      <trkpt lat="42.8691" lon="-0.13926">
        <ele>1829.57</ele>
        <time>2016-03-18T11:39:03Z</time>
      </trkpt>
      <trkpt lat="42.86919" lon="-0.13929">
        <ele>1825.54</ele>
        <time>2016-03-18T11:39:05Z</time>
      </trkpt>
      <trkpt lat="42.86922" lon="-0.13928">
        <ele>1823.2</ele>
        <time>2016-03-18T11:39:06Z</time>
      </trkpt>
      <trkpt lat="42.86925" lon="-0.13926">
        <ele>1814.81</ele>
        <time>2016-03-18T11:39:09Z</time>
      </trkpt>
      <trkpt lat="42.86926" lon="-0.13926">
        <ele>1814.81</ele>
        <time>2016-03-18T11:39:10Z</time>
      </trkpt>
      <trkpt lat="42.86927" lon="-0.13926">
        <ele>1810.51</ele>
        <time>2016-03-18T11:39:13Z</time>
      </trkpt>
      <trkpt lat="42.86928" lon="-0.13923">
        <ele>1807.48</ele>
        <time>2016-03-18T11:39:24Z</time>
      </trkpt>
      <trkpt lat="42.86935" lon="-0.13921">
        <ele>1807.47</ele>
        <time>2016-03-18T11:39:36Z</time>
      </trkpt>
      <trkpt lat="42.86951" lon="-0.1393">
        <ele>1806.38</ele>
        <time>2016-03-18T11:39:39Z</time>
      </trkpt>
      <trkpt lat="42.8698" lon="-0.13931">
        <ele>1802.3</ele>
        <time>2016-03-18T11:39:42Z</time>
      </trkpt>
      <trkpt lat="42.86992" lon="-0.13932">
        <ele>1800.25</ele>
        <time>2016-03-18T11:39:43Z</time>
      </trkpt>
      <trkpt lat="42.87017" lon="-0.13938">
        <ele>1792.93</ele>
        <time>2016-03-18T11:39:45Z</time>
      </trkpt>
      <trkpt lat="42.87029" lon="-0.13941">
        <ele>1792.93</ele>
        <time>2016-03-18T11:39:46Z</time>
      </trkpt>
      <trkpt lat="42.8704" lon="-0.13944">
        <ele>1787.67</ele>
        <time>2016-03-18T11:39:47Z</time>
      </trkpt>
      <trkpt lat="42.87075" lon="-0.13951">
        <ele>1780.36</ele>
        <time>2016-03-18T11:39:50Z</time>
      </trkpt>
      <trkpt lat="42.87093" lon="-0.13957">
        <ele>1775.25</ele>
        <time>2016-03-18T11:39:52Z</time>
      </trkpt>
      <trkpt lat="42.87107" lon="-0.13962">
        <ele>1770.95</ele>
        <time>2016-03-18T11:39:54Z</time>
      </trkpt>
      <trkpt lat="42.8712" lon="-0.13968">
        <ele>1767.69</ele>
        <time>2016-03-18T11:39:56Z</time>
      </trkpt>
      <trkpt lat="42.87135" lon="-0.13974">
        <ele>1765.04</ele>
        <time>2016-03-18T11:39:58Z</time>
      </trkpt>
      <trkpt lat="42.87162" lon="-0.13993">
        <ele>1760.73</ele>
        <time>2016-03-18T11:40:02Z</time>
      </trkpt>
      <trkpt lat="42.87172" lon="-0.14004">
        <ele>1759.02</ele>
        <time>2016-03-18T11:40:04Z</time>
      </trkpt>
      <trkpt lat="42.87179" lon="-0.14011">
        <ele>1757.55</ele>
        <time>2016-03-18T11:40:06Z</time>
      </trkpt>
      <trkpt lat="42.87185" lon="-0.14017">
        <ele>1756.27</ele>
        <time>2016-03-18T11:40:08Z</time>
      </trkpt>
      <trkpt lat="42.87197" lon="-0.14025">
        <ele>1755.26</ele>
        <time>2016-03-18T11:40:10Z</time>
      </trkpt>
      <trkpt lat="42.8721" lon="-0.14033">
        <ele>1751.84</ele>
        <time>2016-03-18T11:40:19Z</time>
      </trkpt>
      <trkpt lat="42.87207" lon="-0.14036">
        <ele>1751.84</ele>
        <time>2016-03-18T11:40:44Z</time>
      </trkpt>
      <trkpt lat="42.87206" lon="-0.14037">
        <ele>1751.96</ele>
        <time>2016-03-18T11:40:47Z</time>
      </trkpt>
      <trkpt lat="42.87207" lon="-0.14038">
        <ele>1751.98</ele>
        <time>2016-03-18T11:41:10Z</time>
      </trkpt>
      <trkpt lat="42.87209" lon="-0.14039">
        <ele>1752.67</ele>
        <time>2016-03-18T11:41:42Z</time>
      </trkpt>
      <trkpt lat="42.87212" lon="-0.14038">
        <ele>1752.37</ele>
        <time>2016-03-18T11:42:00Z</time>
      </trkpt>
      <trkpt lat="42.87218" lon="-0.14037">
        <ele>1751.95</ele>
        <time>2016-03-18T11:42:06Z</time>
      </trkpt>
      <trkpt lat="42.87247" lon="-0.14015">
        <ele>1748.71</ele>
        <time>2016-03-18T11:42:17Z</time>
      </trkpt>
      <trkpt lat="42.87259" lon="-0.14006">
        <ele>1744.96</ele>
        <time>2016-03-18T11:42:21Z</time>
      </trkpt>
      <trkpt lat="42.87269" lon="-0.13999">
        <ele>1741.53</ele>
        <time>2016-03-18T11:42:24Z</time>
      </trkpt>
      <trkpt lat="42.87278" lon="-0.13992">
        <ele>1738.14</ele>
        <time>2016-03-18T11:42:27Z</time>
      </trkpt>
      <trkpt lat="42.87291" lon="-0.13982">
        <ele>1734.55</ele>
        <time>2016-03-18T11:42:31Z</time>
      </trkpt>
      <trkpt lat="42.87308" lon="-0.13971">
        <ele>1731.31</ele>
        <time>2016-03-18T11:42:36Z</time>
      </trkpt>
      <trkpt lat="42.87316" lon="-0.13966">
        <ele>1729.12</ele>
        <time>2016-03-18T11:42:39Z</time>
      </trkpt>
      <trkpt lat="42.87328" lon="-0.1396">
        <ele>1726.95</ele>
        <time>2016-03-18T11:42:43Z</time>
      </trkpt>
      <trkpt lat="42.87341" lon="-0.13946">
        <ele>1722.96</ele>
        <time>2016-03-18T11:42:50Z</time>
      </trkpt>
      <trkpt lat="42.87346" lon="-0.13942">
        <ele>1722.15</ele>
        <time>2016-03-18T11:42:53Z</time>
      </trkpt>
      <trkpt lat="42.87366" lon="-0.13956">
        <ele>1721.2</ele>
        <time>2016-03-18T11:42:57Z</time>
      </trkpt>
      <trkpt lat="42.87401" lon="-0.13962">
        <ele>1716.35</ele>
        <time>2016-03-18T11:43:01Z</time>
      </trkpt>
      <trkpt lat="42.87408" lon="-0.13952">
        <ele>1713.23</ele>
        <time>2016-03-18T11:43:03Z</time>
      </trkpt>
      <trkpt lat="42.87408" lon="-0.13949">
        <ele>1709.07</ele>
        <time>2016-03-18T11:43:06Z</time>
      </trkpt>
      <trkpt lat="42.87407" lon="-0.13949">
        <ele>1705.95</ele>
        <time>2016-03-18T11:43:10Z</time>
      </trkpt>
      <trkpt lat="42.87408" lon="-0.13951">
        <ele>1703.43</ele>
        <time>2016-03-18T11:43:34Z</time>
      </trkpt>
      <trkpt lat="42.87409" lon="-0.1395">
        <ele>1703.46</ele>
        <time>2016-03-18T11:44:03Z</time>
      </trkpt>
      <trkpt lat="42.87407" lon="-0.13952">
        <ele>1703.7</ele>
        <time>2016-03-18T11:44:30Z</time>
      </trkpt>
      <trkpt lat="42.87408" lon="-0.1395">
        <ele>1703.76</ele>
        <time>2016-03-18T11:45:01Z</time>
      </trkpt>
      <trkpt lat="42.87407" lon="-0.13952">
        <ele>1703.27</ele>
        <time>2016-03-18T11:45:27Z</time>
      </trkpt>
      <trkpt lat="42.87411" lon="-0.1395">
        <ele>1702.82</ele>
        <time>2016-03-18T11:45:36Z</time>
      </trkpt>
      <trkpt lat="42.87418" lon="-0.13946">
        <ele>1702.79</ele>
        <time>2016-03-18T11:45:39Z</time>
      </trkpt>
      <trkpt lat="42.87446" lon="-0.13925">
        <ele>1701.05</ele>
        <time>2016-03-18T11:45:46Z</time>
      </trkpt>
      <trkpt lat="42.87476" lon="-0.13911">
        <ele>1698.68</ele>
        <time>2016-03-18T11:45:50Z</time>
      </trkpt>
      <trkpt lat="42.87505" lon="-0.13908">
        <ele>1694.36</ele>
        <time>2016-03-18T11:45:54Z</time>
      </trkpt>
      <trkpt lat="42.87513" lon="-0.13908">
        <ele>1693.15</ele>
        <time>2016-03-18T11:45:55Z</time>
      </trkpt>
      <trkpt lat="42.87534" lon="-0.13903">
        <ele>1688.49</ele>
        <time>2016-03-18T11:45:59Z</time>
      </trkpt>
      <trkpt lat="42.87551" lon="-0.13896">
        <ele>1684.25</ele>
        <time>2016-03-18T11:46:03Z</time>
      </trkpt>
      <trkpt lat="42.87564" lon="-0.13891">
        <ele>1682.22</ele>
        <time>2016-03-18T11:46:06Z</time>
      </trkpt>
      <trkpt lat="42.87586" lon="-0.13877">
        <ele>1678.83</ele>
        <time>2016-03-18T11:46:11Z</time>
      </trkpt>
      <trkpt lat="42.87616" lon="-0.13876">
        <ele>1674.26</ele>
        <time>2016-03-18T11:46:16Z</time>
      </trkpt>
      <trkpt lat="42.87643" lon="-0.13896">
        <ele>1668.14</ele>
        <time>2016-03-18T11:46:21Z</time>
      </trkpt>
      <trkpt lat="42.8765" lon="-0.13917">
        <ele>1663.25</ele>
        <time>2016-03-18T11:46:24Z</time>
      </trkpt>
      <trkpt lat="42.87653" lon="-0.1393">
        <ele>1659.66</ele>
        <time>2016-03-18T11:46:26Z</time>
      </trkpt>
      <trkpt lat="42.87661" lon="-0.13937">
        <ele>1655.67</ele>
        <time>2016-03-18T11:46:28Z</time>
      </trkpt>
      <trkpt lat="42.87666" lon="-0.13936">
        <ele>1653.64</ele>
        <time>2016-03-18T11:46:29Z</time>
      </trkpt>
      <trkpt lat="42.87687" lon="-0.13926">
        <ele>1645.71</ele>
        <time>2016-03-18T11:46:33Z</time>
      </trkpt>
      <trkpt lat="42.87694" lon="-0.13924">
        <ele>1644.21</ele>
        <time>2016-03-18T11:46:34Z</time>
      </trkpt>
      <trkpt lat="42.87708" lon="-0.13941">
        <ele>1639.12</ele>
        <time>2016-03-18T11:46:38Z</time>
      </trkpt>
      <trkpt lat="42.87719" lon="-0.1396">
        <ele>1634.72</ele>
        <time>2016-03-18T11:46:41Z</time>
      </trkpt>
      <trkpt lat="42.8773" lon="-0.13965">
        <ele>1631.19</ele>
        <time>2016-03-18T11:46:43Z</time>
      </trkpt>
      <trkpt lat="42.87742" lon="-0.13957">
        <ele>1627.44</ele>
        <time>2016-03-18T11:46:45Z</time>
      </trkpt>
      <trkpt lat="42.87754" lon="-0.13949">
        <ele>1623.78</ele>
        <time>2016-03-18T11:46:47Z</time>
      </trkpt>
      <trkpt lat="42.87764" lon="-0.13942">
        <ele>1620.47</ele>
        <time>2016-03-18T11:46:49Z</time>
      </trkpt>
      <trkpt lat="42.87772" lon="-0.13936">
        <ele>1616.43</ele>
        <time>2016-03-18T11:46:51Z</time>
      </trkpt>
      <trkpt lat="42.87783" lon="-0.13927">
        <ele>1612.96</ele>
        <time>2016-03-18T11:46:55Z</time>
      </trkpt>
      <trkpt lat="42.87795" lon="-0.13921">
        <ele>1609.94</ele>
        <time>2016-03-18T11:47:00Z</time>
      </trkpt>
      <trkpt lat="42.87793" lon="-0.13946">
        <ele>1606</ele>
        <time>2016-03-18T11:47:05Z</time>
      </trkpt>
      <trkpt lat="42.87789" lon="-0.13963">
        <ele>1602.35</ele>
        <time>2016-03-18T11:47:08Z</time>
      </trkpt>
      <trkpt lat="42.8779" lon="-0.13969">
        <ele>1599.13</ele>
        <time>2016-03-18T11:47:10Z</time>
      </trkpt>
      <trkpt lat="42.87794" lon="-0.13975">
        <ele>1595.85</ele>
        <time>2016-03-18T11:47:12Z</time>
      </trkpt>
      <trkpt lat="42.878" lon="-0.1397">
        <ele>1591.68</ele>
        <time>2016-03-18T11:47:15Z</time>
      </trkpt>
      <trkpt lat="42.87807" lon="-0.13975">
        <ele>1588.66</ele>
        <time>2016-03-18T11:47:17Z</time>
      </trkpt>
      <trkpt lat="42.87814" lon="-0.13976">
        <ele>1585.64</ele>
        <time>2016-03-18T11:47:19Z</time>
      </trkpt>
      <trkpt lat="42.87821" lon="-0.13972">
        <ele>1582.16</ele>
        <time>2016-03-18T11:47:21Z</time>
      </trkpt>
      <trkpt lat="42.87827" lon="-0.13982">
        <ele>1578.36</ele>
        <time>2016-03-18T11:47:23Z</time>
      </trkpt>
      <trkpt lat="42.87825" lon="-0.13999">
        <ele>1574.76</ele>
        <time>2016-03-18T11:47:25Z</time>
      </trkpt>
      <trkpt lat="42.87823" lon="-0.14016">
        <ele>1571.21</ele>
        <time>2016-03-18T11:47:27Z</time>
      </trkpt>
      <trkpt lat="42.87823" lon="-0.1403">
        <ele>1566.05</ele>
        <time>2016-03-18T11:47:30Z</time>
      </trkpt>
      <trkpt lat="42.87824" lon="-0.1403">
        <ele>1562.52</ele>
        <time>2016-03-18T11:47:32Z</time>
      </trkpt>
      <trkpt lat="42.87824" lon="-0.14029">
        <ele>1559.02</ele>
        <time>2016-03-18T11:47:35Z</time>
      </trkpt>
      <trkpt lat="42.87825" lon="-0.1403">
        <ele>1555.83</ele>
        <time>2016-03-18T11:47:40Z</time>
      </trkpt>
      <trkpt lat="42.87826" lon="-0.14033">
        <ele>1554.24</ele>
        <time>2016-03-18T11:48:07Z</time>
      </trkpt>
      <trkpt lat="42.87848" lon="-0.14009">
        <ele>1554.1</ele>
        <time>2016-03-18T11:48:12Z</time>
      </trkpt>
      <trkpt lat="42.87868" lon="-0.13995">
        <ele>1550.22</ele>
        <time>2016-03-18T11:48:17Z</time>
      </trkpt>
      <trkpt lat="42.87868" lon="-0.13995">
        <ele>1547.18</ele>
        <time>2016-03-18T11:48:20Z</time>
      </trkpt>
      <trkpt lat="42.87869" lon="-0.13995">
        <ele>1544.98</ele>
        <time>2016-03-18T11:48:23Z</time>
      </trkpt>
      <trkpt lat="42.87874" lon="-0.14007">
        <ele>1542.69</ele>
        <time>2016-03-18T11:48:28Z</time>
      </trkpt>
      <trkpt lat="42.8788" lon="-0.14014">
        <ele>1538.05</ele>
        <time>2016-03-18T11:48:32Z</time>
      </trkpt>
      <trkpt lat="42.87882" lon="-0.14015">
        <ele>1534.3</ele>
        <time>2016-03-18T11:48:36Z</time>
      </trkpt>
      <trkpt lat="42.87892" lon="-0.14021">
        <ele>1531.28</ele>
        <time>2016-03-18T11:48:41Z</time>
      </trkpt>
      <trkpt lat="42.87889" lon="-0.14032">
        <ele>1526.27</ele>
        <time>2016-03-18T11:48:47Z</time>
      </trkpt>
      <trkpt lat="42.87889" lon="-0.14033">
        <ele>1525.54</ele>
        <time>2016-03-18T11:48:48Z</time>
      </trkpt>
      <trkpt lat="42.87898" lon="-0.14036">
        <ele>1521.66</ele>
        <time>2016-03-18T11:48:52Z</time>
      </trkpt>
      <trkpt lat="42.87898" lon="-0.14036">
        <ele>1520.62</ele>
        <time>2016-03-18T11:48:53Z</time>
      </trkpt>
      <trkpt lat="42.87902" lon="-0.14046">
        <ele>1516.72</ele>
        <time>2016-03-18T11:48:58Z</time>
      </trkpt>
      <trkpt lat="42.87911" lon="-0.14054">
        <ele>1512.02</ele>
        <time>2016-03-18T11:49:03Z</time>
      </trkpt>
      <trkpt lat="42.87918" lon="-0.14058">
        <ele>1508.49</ele>
        <time>2016-03-18T11:49:07Z</time>
      </trkpt>
      <trkpt lat="42.87922" lon="-0.14072">
        <ele>1504.58</ele>
        <time>2016-03-18T11:49:11Z</time>
      </trkpt>
      <trkpt lat="42.87925" lon="-0.1407">
        <ele>1503.38</ele>
        <time>2016-03-18T11:49:12Z</time>
      </trkpt>
      <trkpt lat="42.87935" lon="-0.14066">
        <ele>1498.15</ele>
        <time>2016-03-18T11:49:16Z</time>
      </trkpt>
      <trkpt lat="42.87936" lon="-0.14067">
        <ele>1494.46</ele>
        <time>2016-03-18T11:49:19Z</time>
      </trkpt>
      <trkpt lat="42.87943" lon="-0.14065">
        <ele>1491.21</ele>
        <time>2016-03-18T11:49:24Z</time>
      </trkpt>
      <trkpt lat="42.87942" lon="-0.14064">
        <ele>1488.32</ele>
        <time>2016-03-18T11:49:38Z</time>
      </trkpt>
      <trkpt lat="42.87942" lon="-0.14058">
        <ele>1488.04</ele>
        <time>2016-03-18T11:49:42Z</time>
      </trkpt>
      <trkpt lat="42.87954" lon="-0.14046">
        <ele>1486.51</ele>
        <time>2016-03-18T11:49:50Z</time>
      </trkpt>
      <trkpt lat="42.87973" lon="-0.14036">
        <ele>1483.69</ele>
        <time>2016-03-18T11:49:59Z</time>
      </trkpt>
      <trkpt lat="42.87982" lon="-0.14032">
        <ele>1482.1</ele>
        <time>2016-03-18T11:50:03Z</time>
      </trkpt>
      <trkpt lat="42.87999" lon="-0.14021">
        <ele>1478.51</ele>
        <time>2016-03-18T11:50:10Z</time>
      </trkpt>
      <trkpt lat="42.88013" lon="-0.14013">
        <ele>1476.93</ele>
        <time>2016-03-18T11:50:13Z</time>
      </trkpt>
      <trkpt lat="42.88033" lon="-0.13996">
        <ele>1472.59</ele>
        <time>2016-03-18T11:50:19Z</time>
      </trkpt>
      <trkpt lat="42.88044" lon="-0.13988">
        <ele>1469.54</ele>
        <time>2016-03-18T11:50:23Z</time>
      </trkpt>
      <trkpt lat="42.88056" lon="-0.13978">
        <ele>1466.41</ele>
        <time>2016-03-18T11:50:27Z</time>
      </trkpt>
      <trkpt lat="42.88066" lon="-0.13966">
        <ele>1463.19</ele>
        <time>2016-03-18T11:50:31Z</time>
      </trkpt>
      <trkpt lat="42.88069" lon="-0.13962">
        <ele>1462.34</ele>
        <time>2016-03-18T11:50:32Z</time>
      </trkpt>
      <trkpt lat="42.88083" lon="-0.13963">
        <ele>1457.51</ele>
        <time>2016-03-18T11:50:37Z</time>
      </trkpt>
      <trkpt lat="42.88089" lon="-0.13969">
        <ele>1453.14</ele>
        <time>2016-03-18T11:50:39Z</time>
      </trkpt>
      <trkpt lat="42.88097" lon="-0.13969">
        <ele>1449.49</ele>
        <time>2016-03-18T11:50:41Z</time>
      </trkpt>
      <trkpt lat="42.88104" lon="-0.13971">
        <ele>1445.57</ele>
        <time>2016-03-18T11:50:43Z</time>
      </trkpt>
      <trkpt lat="42.88111" lon="-0.13971">
        <ele>1441.28</ele>
        <time>2016-03-18T11:50:45Z</time>
      </trkpt>
      <trkpt lat="42.88117" lon="-0.13973">
        <ele>1436.87</ele>
        <time>2016-03-18T11:50:47Z</time>
      </trkpt>
      <trkpt lat="42.88123" lon="-0.13978">
        <ele>1432.23</ele>
        <time>2016-03-18T11:50:49Z</time>
      </trkpt>
      <trkpt lat="42.8813" lon="-0.13973">
        <ele>1427.55</ele>
        <time>2016-03-18T11:50:51Z</time>
      </trkpt>
      <trkpt lat="42.88134" lon="-0.1398">
        <ele>1422.9</ele>
        <time>2016-03-18T11:50:53Z</time>
      </trkpt>
      <trkpt lat="42.88133" lon="-0.13987">
        <ele>1417.98</ele>
        <time>2016-03-18T11:50:55Z</time>
      </trkpt>
      <trkpt lat="42.88133" lon="-0.13994">
        <ele>1413.85</ele>
        <time>2016-03-18T11:50:57Z</time>
      </trkpt>
      <trkpt lat="42.88137" lon="-0.13995">
        <ele>1412.19</ele>
        <time>2016-03-18T11:50:58Z</time>
      </trkpt>
      <trkpt lat="42.88153" lon="-0.1401">
        <ele>1406.31</ele>
        <time>2016-03-18T11:51:02Z</time>
      </trkpt>
      <trkpt lat="42.88154" lon="-0.14031">
        <ele>1402.32</ele>
        <time>2016-03-18T11:51:04Z</time>
      </trkpt>
      <trkpt lat="42.88157" lon="-0.14068">
        <ele>1396.08</ele>
        <time>2016-03-18T11:51:07Z</time>
      </trkpt>
      <trkpt lat="42.88158" lon="-0.14089">
        <ele>1389.88</ele>
        <time>2016-03-18T11:51:09Z</time>
      </trkpt>
      <trkpt lat="42.88158" lon="-0.14099">
        <ele>1389.88</ele>
        <time>2016-03-18T11:51:10Z</time>
      </trkpt>
      <trkpt lat="42.88159" lon="-0.14119">
        <ele>1386.6</ele>
        <time>2016-03-18T11:51:12Z</time>
      </trkpt>
      <trkpt lat="42.88159" lon="-0.1414">
        <ele>1382.81</ele>
        <time>2016-03-18T11:51:14Z</time>
      </trkpt>
      <trkpt lat="42.88159" lon="-0.14162">
        <ele>1379.19</ele>
        <time>2016-03-18T11:51:17Z</time>
      </trkpt>
      <trkpt lat="42.88158" lon="-0.14168">
        <ele>1377.23</ele>
        <time>2016-03-18T11:51:20Z</time>
      </trkpt>
      <trkpt lat="42.88159" lon="-0.14168">
        <ele>1374.21</ele>
        <time>2016-03-18T11:51:25Z</time>
      </trkpt>
      <trkpt lat="42.88159" lon="-0.14169">
        <ele>1373.91</ele>
        <time>2016-03-18T11:51:26Z</time>
      </trkpt>
      <trkpt lat="42.88162" lon="-0.14198">
        <ele>1372.73</ele>
        <time>2016-03-18T11:51:34Z</time>
      </trkpt>
      <trkpt lat="42.88168" lon="-0.14217">
        <ele>1372.14</ele>
        <time>2016-03-18T11:51:37Z</time>
      </trkpt>
      <trkpt lat="42.88191" lon="-0.14225">
        <ele>1369.24</ele>
        <time>2016-03-18T11:51:42Z</time>
      </trkpt>
      <trkpt lat="42.88198" lon="-0.14228">
        <ele>1366.93</ele>
        <time>2016-03-18T11:51:44Z</time>
      </trkpt>
      <trkpt lat="42.88199" lon="-0.14226">
        <ele>1365.72</ele>
        <time>2016-03-18T11:51:45Z</time>
      </trkpt>
      <trkpt lat="42.882" lon="-0.14223">
        <ele>1364.5</ele>
        <time>2016-03-18T11:51:46Z</time>
      </trkpt>
      <trkpt lat="42.88201" lon="-0.14221">
        <ele>1363.32</ele>
        <time>2016-03-18T11:51:47Z</time>
      </trkpt>
      <trkpt lat="42.88203" lon="-0.14218">
        <ele>1362.29</ele>
        <time>2016-03-18T11:51:48Z</time>
      </trkpt>
      <trkpt lat="42.88205" lon="-0.14219">
        <ele>1361.45</ele>
        <time>2016-03-18T11:51:49Z</time>
      </trkpt>
      <trkpt lat="42.88206" lon="-0.14223">
        <ele>1360.74</ele>
        <time>2016-03-18T11:51:50Z</time>
      </trkpt>
      <trkpt lat="42.88206" lon="-0.14228">
        <ele>1360.06</ele>
        <time>2016-03-18T11:51:51Z</time>
      </trkpt>
      <trkpt lat="42.88206" lon="-0.14233">
        <ele>1359.36</ele>
        <time>2016-03-18T11:51:52Z</time>
      </trkpt>
      <trkpt lat="42.88206" lon="-0.14237">
        <ele>1358.63</ele>
        <time>2016-03-18T11:51:53Z</time>
      </trkpt>
      <trkpt lat="42.88206" lon="-0.14239">
        <ele>1357.85</ele>
        <time>2016-03-18T11:51:54Z</time>
      </trkpt>
      <trkpt lat="42.88207" lon="-0.1424">
        <ele>1354.48</ele>
        <time>2016-03-18T11:51:59Z</time>
      </trkpt>
      <trkpt lat="42.88207" lon="-0.14238">
        <ele>1352.85</ele>
        <time>2016-03-18T11:52:25Z</time>
      </trkpt>
      <trkpt lat="42.88207" lon="-0.1424">
        <ele>1352.51</ele>
        <time>2016-03-18T11:52:50Z</time>
      </trkpt>
      <trkpt lat="42.88207" lon="-0.14238">
        <ele>1352.34</ele>
        <time>2016-03-18T11:53:16Z</time>
      </trkpt>
      <trkpt lat="42.88206" lon="-0.14237">
        <ele>1353.17</ele>
        <time>2016-03-18T11:53:39Z</time>
      </trkpt>
      <trkpt lat="42.88203" lon="-0.14237">
        <ele>1353.19</ele>
        <time>2016-03-18T11:54:07Z</time>
      </trkpt>
      <trkpt lat="42.882" lon="-0.14234">
        <ele>1352.87</ele>
        <time>2016-03-18T11:54:37Z</time>
      </trkpt>
      <trkpt lat="42.882" lon="-0.14233">
        <ele>1352.89</ele>
        <time>2016-03-18T11:54:38Z</time>
      </trkpt>
      <trkpt lat="42.88197" lon="-0.14234">
        <ele>1352.95</ele>
        <time>2016-03-18T11:55:09Z</time>
      </trkpt>
      <trkpt lat="42.882" lon="-0.14232">
        <ele>1352.98</ele>
        <time>2016-03-18T11:55:35Z</time>
      </trkpt>
      <trkpt lat="42.88198" lon="-0.1423">
        <ele>1352.57</ele>
        <time>2016-03-18T11:56:03Z</time>
      </trkpt>
      <trkpt lat="42.88197" lon="-0.14225">
        <ele>1352.71</ele>
        <time>2016-03-18T11:56:35Z</time>
      </trkpt>
      <trkpt lat="42.88199" lon="-0.14227">
        <ele>1352.49</ele>
        <time>2016-03-18T11:57:04Z</time>
      </trkpt>
      <trkpt lat="42.882" lon="-0.1423">
        <ele>1353.01</ele>
        <time>2016-03-18T11:57:16Z</time>
      </trkpt>
      <trkpt lat="42.88203" lon="-0.14235">
        <ele>1353.05</ele>
        <time>2016-03-18T11:57:48Z</time>
      </trkpt>
      <trkpt lat="42.88203" lon="-0.14234">
        <ele>1352.68</ele>
        <time>2016-03-18T11:58:17Z</time>
      </trkpt>
      <trkpt lat="42.88201" lon="-0.1423">
        <ele>1352.48</ele>
        <time>2016-03-18T11:58:46Z</time>
      </trkpt>
      <trkpt lat="42.88208" lon="-0.14241">
        <ele>1352.53</ele>
        <time>2016-03-18T11:59:14Z</time>
      </trkpt>
      <trkpt lat="42.88226" lon="-0.14251">
        <ele>1353.48</ele>
        <time>2016-03-18T11:59:35Z</time>
      </trkpt>
      <trkpt lat="42.88225" lon="-0.14248">
        <ele>1354.15</ele>
        <time>2016-03-18T11:59:50Z</time>
      </trkpt>
      <trkpt lat="42.88225" lon="-0.1425">
        <ele>1354.15</ele>
        <time>2016-03-18T12:00:01Z</time>
      </trkpt>
      <trkpt lat="42.88228" lon="-0.14256">
        <ele>1353.44</ele>
        <time>2016-03-18T12:00:35Z</time>
      </trkpt>
      <trkpt lat="42.88231" lon="-0.14262">
        <ele>1353.65</ele>
        <time>2016-03-18T12:01:10Z</time>
      </trkpt>
      <trkpt lat="42.88225" lon="-0.14255">
        <ele>1353.41</ele>
        <time>2016-03-18T12:01:43Z</time>
      </trkpt>
      <trkpt lat="42.88223" lon="-0.14253">
        <ele>1353.67</ele>
        <time>2016-03-18T12:02:13Z</time>
      </trkpt>
      <trkpt lat="42.88223" lon="-0.14253">
        <ele>1353.79</ele>
        <time>2016-03-18T12:02:42Z</time>
      </trkpt>
      <trkpt lat="42.88226" lon="-0.1426">
        <ele>1354.59</ele>
        <time>2016-03-18T12:03:11Z</time>
      </trkpt>
      <trkpt lat="42.88225" lon="-0.14261">
        <ele>1354.34</ele>
        <time>2016-03-18T12:03:38Z</time>
      </trkpt>
      <trkpt lat="42.88227" lon="-0.14258">
        <ele>1354.78</ele>
        <time>2016-03-18T12:04:13Z</time>
      </trkpt>
      <trkpt lat="42.88225" lon="-0.14264">
        <ele>1355.54</ele>
        <time>2016-03-18T12:04:55Z</time>
      </trkpt>
      <trkpt lat="42.88223" lon="-0.14266">
        <ele>1355.35</ele>
        <time>2016-03-18T12:05:27Z</time>
      </trkpt>
      <trkpt lat="42.88223" lon="-0.14264">
        <ele>1355.49</ele>
        <time>2016-03-18T12:06:18Z</time>
      </trkpt>
      <trkpt lat="42.88223" lon="-0.1426">
        <ele>1356.06</ele>
        <time>2016-03-18T12:06:51Z</time>
      </trkpt>
      <trkpt lat="42.88222" lon="-0.14262">
        <ele>1356.08</ele>
        <time>2016-03-18T12:07:23Z</time>
      </trkpt>
      <trkpt lat="42.88222" lon="-0.14271">
        <ele>1356.37</ele>
        <time>2016-03-18T12:07:46Z</time>
      </trkpt>
      <trkpt lat="42.8822" lon="-0.14272">
        <ele>1356.44</ele>
        <time>2016-03-18T12:08:16Z</time>
      </trkpt>
      <trkpt lat="42.88216" lon="-0.14266">
        <ele>1356.21</ele>
        <time>2016-03-18T12:08:44Z</time>
      </trkpt>
      <trkpt lat="42.88219" lon="-0.14266">
        <ele>1356</ele>
        <time>2016-03-18T12:09:14Z</time>
      </trkpt>
      <trkpt lat="42.88214" lon="-0.14271">
        <ele>1356.34</ele>
        <time>2016-03-18T12:09:43Z</time>
      </trkpt>
      <trkpt lat="42.88221" lon="-0.14275">
        <ele>1356.06</ele>
        <time>2016-03-18T12:10:12Z</time>
      </trkpt>
      <trkpt lat="42.8822" lon="-0.14272">
        <ele>1356.41</ele>
        <time>2016-03-18T12:10:50Z</time>
      </trkpt>
      <trkpt lat="42.88218" lon="-0.14277">
        <ele>1357.13</ele>
        <time>2016-03-18T12:11:20Z</time>
      </trkpt>
      <trkpt lat="42.88222" lon="-0.14267">
        <ele>1357.63</ele>
        <time>2016-03-18T12:12:22Z</time>
      </trkpt>
      <trkpt lat="42.8822" lon="-0.14266">
        <ele>1358.13</ele>
        <time>2016-03-18T12:12:47Z</time>
      </trkpt>
      <trkpt lat="42.88221" lon="-0.14264">
        <ele>1358.15</ele>
        <time>2016-03-18T12:13:13Z</time>
      </trkpt>
      <trkpt lat="42.88214" lon="-0.14256">
        <ele>1358.24</ele>
        <time>2016-03-18T12:13:39Z</time>
      </trkpt>
      <trkpt lat="42.88215" lon="-0.14266">
        <ele>1358.81</ele>
        <time>2016-03-18T12:14:10Z</time>
      </trkpt>
      <trkpt lat="42.88222" lon="-0.14259">
        <ele>1358.11</ele>
        <time>2016-03-18T12:14:39Z</time>
      </trkpt>
      <trkpt lat="42.88209" lon="-0.14252">
        <ele>1358.25</ele>
        <time>2016-03-18T12:14:47Z</time>
      </trkpt>
      <trkpt lat="42.88207" lon="-0.14249">
        <ele>1358.21</ele>
        <time>2016-03-18T12:14:48Z</time>
      </trkpt>
      <trkpt lat="42.88206" lon="-0.14242">
        <ele>1358.15</ele>
        <time>2016-03-18T12:14:49Z</time>
      </trkpt>
      <trkpt lat="42.88206" lon="-0.14234">
        <ele>1358.07</ele>
        <time>2016-03-18T12:14:50Z</time>
      </trkpt>
    </trkseg>
  </trk>
</gpx>